<?xml version="1.0" encoding="UTF-8"?>
<gpx xmlns="http://www.topografix.com/GPX/1/1" version="1.1" creator="EasyGPS 7.09 using Garmin Colorado 300" xmlns:xsi="http://www.w3.org/2001/XMLSchema-instance" xsi:schemaLocation="http://www.topografix.com/GPX/1/1 http://www.topografix.com/GPX/1/1/gpx.xsd http://www.topografix.com/GPX/gpx_style/0/2 http://www.topografix.com/GPX/gpx_style/0/2/gpx_style.xsd http://www.topografix.com/GPX/gpx_overlay/0/3 http://www.topografix.com/GPX/gpx_overlay/0/3/gpx_overlay.xsd http://www.topografix.com/GPX/gpx_modified/0/1 http://www.topografix.com/GPX/gpx_modified/0/1/gpx_modified.xsd">
<metadata>
<link href="http://www.trackmaker.com">
<text>Geo Studio Tecnology Ltd</text>
</link>
<bounds minlat="43.12341002" minlon="-2.52790388" maxlat="43.16273802" maxlon="-2.47897288"/>
<extensions>
<time xmlns="http://www.topografix.com/GPX/gpx_modified/0/1">2025-02-17T22:57:32.038Z</time>
</extensions>
</metadata>
<wpt lat="43.15836904" lon="-2.52645076">
<ele>668.200</ele>
<time>2012-05-02T18:50:35Z</time>
<name>Santamarin</name>
<cmt>Santamarinezar</cmt>
<desc>Santamarinezar</desc>
<type>Waypoint</type>
<extensions>
<label xmlns="http://www.topografix.com/GPX/gpx_overlay/0/3">
<label_text>Santamarin</label_text>
</label>
</extensions>
</wpt>
<wpt lat="43.14645100" lon="-2.49152400">
<ele>645.800</ele>
<time>2025-02-17T11:31:01Z</time>
<name>Goikomendi</name>
<cmt>Goikomendi</cmt>
<desc>Goikomendi</desc>
<type>Waypoint</type>
<extensions>
<label xmlns="http://www.topografix.com/GPX/gpx_overlay/0/3">
<label_text>Goikomendi</label_text>
</label>
</extensions>
</wpt>
<wpt lat="43.13033404" lon="-2.49895276">
<ele>740.300</ele>
<time>2012-05-02T18:50:35Z</time>
<name>Intxorta</name>
<cmt>Intxorta</cmt>
<desc>Intxorta</desc>
<type>Waypoint</type>
<extensions>
<label xmlns="http://www.topografix.com/GPX/gpx_overlay/0/3">
<label_text>Intxorta</label_text>
</label>
</extensions>
</wpt>
<wpt lat="43.14657604" lon="-2.51155776">
<ele>685.800</ele>
<time>2012-05-02T18:50:35Z</time>
<name>Erdella</name>
<cmt>Erdella</cmt>
<desc>Erdella</desc>
<type>Waypoint</type>
<extensions>
<label xmlns="http://www.topografix.com/GPX/gpx_overlay/0/3">
<label_text>Erdella</label_text>
</label>
</extensions>
</wpt>
<wpt lat="43.13679202" lon="-2.48751288">
<ele>462.100</ele>
<time>2013-02-20T03:33:17Z</time>
<name>Elgeta-II</name>
<cmt>Elgeta</cmt>
<desc>Elgeta</desc>
<type>Waypoint</type>
<extensions>
<label xmlns="http://www.topografix.com/GPX/gpx_overlay/0/3">
<label_text>Elgeta-II</label_text>
</label>
</extensions>
</wpt>
<wpt lat="43.13678719" lon="-2.48767634">
<ele>462.100</ele>
<time>2013-02-20T03:32:52Z</time>
<name>Elgeta-I</name>
<cmt>Elgeta</cmt>
<desc>Elgeta</desc>
<type>Waypoint</type>
<extensions>
<label xmlns="http://www.topografix.com/GPX/gpx_overlay/0/3">
<label_text>Elgeta-I</label_text>
</label>
</extensions>
</wpt>
<wpt lat="43.16225504" lon="-2.49490076">
<ele>728.100</ele>
<time>2013-01-09T22:33:26Z</time>
<name>Egoarbitza</name>
<cmt>Egoarbitza</cmt>
<desc>Egoarbitza</desc>
<type>Waypoint</type>
<extensions>
<label xmlns="http://www.topografix.com/GPX/gpx_overlay/0/3">
<label_text>Egoarbitza</label_text>
</label>
</extensions>
</wpt>
<wpt lat="43.16187306" lon="-2.51035964">
<ele>305.000</ele>
<time>2013-02-16T13:02:17Z</time>
<name>Aixola</name>
<cmt>Aixola Urtegia</cmt>
<desc>Aixola Urtegia</desc>
<type>Waypoint</type>
<extensions>
<label xmlns="http://www.topografix.com/GPX/gpx_overlay/0/3">
<label_text>Aixola</label_text>
</label>
</extensions>
</wpt>
<trk>
<name>Ibiltarien jaia Elgeta</name>
<type>GPS Tracklog</type>
<extensions>
<label xmlns="http://www.topografix.com/GPX/gpx_overlay/0/3">
<label_text>Ibiltarien jaia Elgeta</label_text>
</label>
<line xmlns="http://www.topografix.com/GPX/gpx_style/0/2">
<color>ff0099</color>
<opacity>1.00</opacity>
<width>1.1250</width>
<pattern>Solid</pattern>
</line>
</extensions>
<trkseg>
<trkpt lat="43.13678719" lon="-2.48767634">
<ele>461.839</ele>
<time>2018-03-05T10:25:55Z</time>
</trkpt>
<trkpt lat="43.13670102" lon="-2.48786688">
<ele>464.701</ele>
<time>2018-03-05T10:26:15Z</time>
</trkpt>
<trkpt lat="43.13496302" lon="-2.48870388">
<ele>474.421</ele>
<time>2018-03-05T10:26:35Z</time>
</trkpt>
<trkpt lat="43.13466602" lon="-2.48868188">
<ele>477.908</ele>
<time>2018-03-05T10:26:55Z</time>
</trkpt>
<trkpt lat="43.13439902" lon="-2.48857488">
<ele>480.145</ele>
<time>2018-03-05T10:27:15Z</time>
</trkpt>
<trkpt lat="43.13372602" lon="-2.48868188">
<ele>487.346</ele>
<time>2018-03-05T10:27:35Z</time>
</trkpt>
<trkpt lat="43.13286502" lon="-2.48857488">
<ele>495.483</ele>
<time>2018-03-05T10:27:55Z</time>
</trkpt>
<trkpt lat="43.13255202" lon="-2.48823188">
<ele>491.258</ele>
<time>2018-03-05T10:28:15Z</time>
</trkpt>
<trkpt lat="43.13221902" lon="-2.48796288">
<ele>483.651</ele>
<time>2018-03-05T10:28:35Z</time>
</trkpt>
<trkpt lat="43.13168702" lon="-2.48780288">
<ele>475.853</ele>
<time>2018-03-05T10:28:55Z</time>
</trkpt>
<trkpt lat="43.13128702" lon="-2.48770588">
<ele>476.780</ele>
<time>2018-03-05T10:29:15Z</time>
</trkpt>
<trkpt lat="43.13088002" lon="-2.48753388">
<ele>477.042</ele>
<time>2018-03-05T10:29:35Z</time>
</trkpt>
<trkpt lat="43.13066902" lon="-2.48711588">
<ele>475.897</ele>
<time>2018-03-05T10:29:55Z</time>
</trkpt>
<trkpt lat="43.13008202" lon="-2.48660088">
<ele>481.923</ele>
<time>2018-03-05T10:30:15Z</time>
</trkpt>
<trkpt lat="43.12976802" lon="-2.48582788">
<ele>490.125</ele>
<time>2018-03-05T10:30:35Z</time>
</trkpt>
<trkpt lat="43.12944702" lon="-2.48563488">
<ele>493.508</ele>
<time>2018-03-05T10:30:55Z</time>
</trkpt>
<trkpt lat="43.12918102" lon="-2.48552788">
<ele>496.121</ele>
<time>2018-03-05T10:31:15Z</time>
</trkpt>
<trkpt lat="43.12907902" lon="-2.48524888">
<ele>495.732</ele>
<time>2018-03-05T10:31:35Z</time>
</trkpt>
<trkpt lat="43.12907202" lon="-2.48492688">
<ele>494.929</ele>
<time>2018-03-05T10:31:55Z</time>
</trkpt>
<trkpt lat="43.12889902" lon="-2.48457288">
<ele>494.944</ele>
<time>2018-03-05T10:32:15Z</time>
</trkpt>
<trkpt lat="43.12871102" lon="-2.48431588">
<ele>496.237</ele>
<time>2018-03-05T10:32:35Z</time>
</trkpt>
<trkpt lat="43.12850802" lon="-2.48361788">
<ele>492.769</ele>
<time>2018-03-05T10:32:55Z</time>
</trkpt>
<trkpt lat="43.12841402" lon="-2.48347888">
<ele>491.816</ele>
<time>2018-03-05T10:33:15Z</time>
</trkpt>
<trkpt lat="43.12810102" lon="-2.48324288">
<ele>491.678</ele>
<time>2018-03-05T10:33:35Z</time>
</trkpt>
<trkpt lat="43.12770902" lon="-2.48298488">
<ele>492.816</ele>
<time>2018-03-05T10:33:55Z</time>
</trkpt>
<trkpt lat="43.12714502" lon="-2.48218088">
<ele>491.676</ele>
<time>2018-03-05T10:34:15Z</time>
</trkpt>
<trkpt lat="43.12626102" lon="-2.48071088">
<ele>495.513</ele>
<time>2018-03-05T10:34:35Z</time>
</trkpt>
<trkpt lat="43.12558702" lon="-2.47955188">
<ele>495.308</ele>
<time>2018-03-05T10:34:55Z</time>
</trkpt>
<trkpt lat="43.12550902" lon="-2.47925188">
<ele>495.773</ele>
<time>2018-03-05T10:35:15Z</time>
</trkpt>
<trkpt lat="43.12531302" lon="-2.47900488">
<ele>499.054</ele>
<time>2018-03-05T10:35:35Z</time>
</trkpt>
<trkpt lat="43.12510902" lon="-2.47897288">
<ele>502.781</ele>
<time>2018-03-05T10:35:55Z</time>
</trkpt>
<trkpt lat="43.12377802" lon="-2.47941288">
<ele>530.596</ele>
<time>2018-03-05T10:36:15Z</time>
</trkpt>
<trkpt lat="43.12355102" lon="-2.47909088">
<ele>533.389</ele>
<time>2018-03-05T10:36:35Z</time>
</trkpt>
<trkpt lat="43.12348902" lon="-2.47914388">
<ele>533.981</ele>
<time>2018-03-05T10:36:55Z</time>
</trkpt>
<trkpt lat="43.12341002" lon="-2.47936988">
<ele>534.438</ele>
<time>2018-03-05T10:37:15Z</time>
</trkpt>
<trkpt lat="43.12343402" lon="-2.47963788">
<ele>533.490</ele>
<time>2018-03-05T10:37:35Z</time>
</trkpt>
<trkpt lat="43.12360602" lon="-2.48002388">
<ele>533.095</ele>
<time>2018-03-05T10:37:55Z</time>
</trkpt>
<trkpt lat="43.12389602" lon="-2.48136488">
<ele>535.049</ele>
<time>2018-03-05T10:38:15Z</time>
</trkpt>
<trkpt lat="43.12409902" lon="-2.48211588">
<ele>535.223</ele>
<time>2018-03-05T10:38:35Z</time>
</trkpt>
<trkpt lat="43.12442802" lon="-2.48270588">
<ele>537.908</ele>
<time>2018-03-05T10:38:55Z</time>
</trkpt>
<trkpt lat="43.12454602" lon="-2.48301688">
<ele>539.651</ele>
<time>2018-03-05T10:39:15Z</time>
</trkpt>
<trkpt lat="43.12462402" lon="-2.48315688">
<ele>540.322</ele>
<time>2018-03-05T10:39:35Z</time>
</trkpt>
<trkpt lat="43.12465502" lon="-2.48348988">
<ele>540.739</ele>
<time>2018-03-05T10:39:55Z</time>
</trkpt>
<trkpt lat="43.12492902" lon="-2.48401488">
<ele>544.374</ele>
<time>2018-03-05T10:40:15Z</time>
</trkpt>
<trkpt lat="43.12519602" lon="-2.48421888">
<ele>546.147</ele>
<time>2018-03-05T10:40:35Z</time>
</trkpt>
<trkpt lat="43.12555602" lon="-2.48445488">
<ele>548.179</ele>
<time>2018-03-05T10:40:55Z</time>
</trkpt>
<trkpt lat="43.12578302" lon="-2.48474488">
<ele>550.426</ele>
<time>2018-03-05T10:41:15Z</time>
</trkpt>
<trkpt lat="43.12573402" lon="-2.48485688">
<ele>552.178</ele>
<time>2018-03-05T10:41:35Z</time>
</trkpt>
<trkpt lat="43.12552702" lon="-2.48517388">
<ele>555.261</ele>
<time>2018-03-05T10:41:55Z</time>
</trkpt>
<trkpt lat="43.12524902" lon="-2.48564088">
<ele>559.521</ele>
<time>2018-03-05T10:42:15Z</time>
</trkpt>
<trkpt lat="43.12526002" lon="-2.48584388">
<ele>561.813</ele>
<time>2018-03-05T10:42:35Z</time>
</trkpt>
<trkpt lat="43.12533502" lon="-2.48606988">
<ele>566.108</ele>
<time>2018-03-05T10:42:55Z</time>
</trkpt>
<trkpt lat="43.12552702" lon="-2.48591388">
<ele>568.818</ele>
<time>2018-03-05T10:43:15Z</time>
</trkpt>
<trkpt lat="43.12583202" lon="-2.48589788">
<ele>573.649</ele>
<time>2018-03-05T10:43:35Z</time>
</trkpt>
<trkpt lat="43.12622302" lon="-2.48594588">
<ele>578.816</ele>
<time>2018-03-05T10:43:55Z</time>
</trkpt>
<trkpt lat="43.12647402" lon="-2.48611788">
<ele>584.331</ele>
<time>2018-03-05T10:44:15Z</time>
</trkpt>
<trkpt lat="43.12669702" lon="-2.48640788">
<ele>589.994</ele>
<time>2018-03-05T10:44:35Z</time>
</trkpt>
<trkpt lat="43.12682602" lon="-2.48669188">
<ele>595.126</ele>
<time>2018-03-05T10:44:55Z</time>
</trkpt>
<trkpt lat="43.12692802" lon="-2.48712088">
<ele>601.653</ele>
<time>2018-03-05T10:45:15Z</time>
</trkpt>
<trkpt lat="43.12696302" lon="-2.48741588">
<ele>606.195</ele>
<time>2018-03-05T10:45:35Z</time>
</trkpt>
<trkpt lat="43.12698702" lon="-2.48766288">
<ele>609.579</ele>
<time>2018-03-05T10:45:55Z</time>
</trkpt>
<trkpt lat="43.12702602" lon="-2.48796888">
<ele>613.205</ele>
<time>2018-03-05T10:46:15Z</time>
</trkpt>
<trkpt lat="43.12707302" lon="-2.48818888">
<ele>616.025</ele>
<time>2018-03-05T10:46:35Z</time>
</trkpt>
<trkpt lat="43.12719402" lon="-2.48853688">
<ele>621.408</ele>
<time>2018-03-05T10:46:55Z</time>
</trkpt>
<trkpt lat="43.12739402" lon="-2.48878388">
<ele>626.939</ele>
<time>2018-03-05T10:47:15Z</time>
</trkpt>
<trkpt lat="43.12764102" lon="-2.48922388">
<ele>636.030</ele>
<time>2018-03-05T10:47:35Z</time>
</trkpt>
<trkpt lat="43.12790302" lon="-2.49002288">
<ele>648.627</ele>
<time>2018-03-05T10:47:55Z</time>
</trkpt>
<trkpt lat="43.12795002" lon="-2.49022188">
<ele>651.232</ele>
<time>2018-03-05T10:48:15Z</time>
</trkpt>
<trkpt lat="43.12838902" lon="-2.49122488">
<ele>665.985</ele>
<time>2018-03-05T10:48:35Z</time>
</trkpt>
<trkpt lat="43.12874902" lon="-2.49202388">
<ele>677.947</ele>
<time>2018-03-05T10:48:55Z</time>
</trkpt>
<trkpt lat="43.12894102" lon="-2.49248588">
<ele>682.534</ele>
<time>2018-03-05T10:49:15Z</time>
</trkpt>
<trkpt lat="43.12901902" lon="-2.49279088">
<ele>684.446</ele>
<time>2018-03-05T10:49:35Z</time>
</trkpt>
<trkpt lat="43.12914402" lon="-2.49312888">
<ele>684.594</ele>
<time>2018-03-05T10:49:55Z</time>
</trkpt>
<trkpt lat="43.12926202" lon="-2.49354788">
<ele>685.357</ele>
<time>2018-03-05T10:50:15Z</time>
</trkpt>
<trkpt lat="43.12924602" lon="-2.49381588">
<ele>687.022</ele>
<time>2018-03-05T10:50:35Z</time>
</trkpt>
<trkpt lat="43.12923002" lon="-2.49451888">
<ele>688.508</ele>
<time>2018-03-05T10:50:55Z</time>
</trkpt>
<trkpt lat="43.12918702" lon="-2.49498488">
<ele>688.231</ele>
<time>2018-03-05T10:51:15Z</time>
</trkpt>
<trkpt lat="43.12908502" lon="-2.49530688">
<ele>691.192</ele>
<time>2018-03-05T10:51:35Z</time>
</trkpt>
<trkpt lat="43.12897202" lon="-2.49581688">
<ele>692.649</ele>
<time>2018-03-05T10:51:55Z</time>
</trkpt>
<trkpt lat="43.12904202" lon="-2.49633188">
<ele>692.324</ele>
<time>2018-03-05T10:52:15Z</time>
</trkpt>
<trkpt lat="43.12915202" lon="-2.49669088">
<ele>691.167</ele>
<time>2018-03-05T10:52:35Z</time>
</trkpt>
<trkpt lat="43.12924602" lon="-2.49696488">
<ele>691.299</ele>
<time>2018-03-05T10:52:55Z</time>
</trkpt>
<trkpt lat="43.12933202" lon="-2.49722188">
<ele>693.256</ele>
<time>2018-03-05T10:53:15Z</time>
</trkpt>
<trkpt lat="43.12954002" lon="-2.49765188">
<ele>701.498</ele>
<time>2018-03-05T10:53:35Z</time>
</trkpt>
<trkpt lat="43.12987202" lon="-2.49834888">
<ele>721.017</ele>
<time>2018-03-05T10:53:55Z</time>
</trkpt>
<trkpt lat="43.13010702" lon="-2.49886888">
<ele>731.287</ele>
<time>2018-03-05T10:54:15Z</time>
</trkpt>
<trkpt lat="43.13024402" lon="-2.49912688">
<ele>735.715</ele>
<time>2018-03-05T10:54:35Z</time>
</trkpt>
<trkpt lat="43.13046402" lon="-2.49959288">
<ele>730.908</ele>
<time>2018-03-05T10:54:55Z</time>
</trkpt>
<trkpt lat="43.13073802" lon="-2.50014588">
<ele>717.563</ele>
<time>2018-03-05T10:55:15Z</time>
</trkpt>
<trkpt lat="43.13098802" lon="-2.50063388">
<ele>700.914</ele>
<time>2018-03-05T10:55:35Z</time>
</trkpt>
<trkpt lat="43.13124702" lon="-2.50106888">
<ele>689.411</ele>
<time>2018-03-05T10:55:55Z</time>
</trkpt>
<trkpt lat="43.13145002" lon="-2.50154088">
<ele>679.186</ele>
<time>2018-03-05T10:56:15Z</time>
</trkpt>
<trkpt lat="43.13158302" lon="-2.50185188">
<ele>673.729</ele>
<time>2018-03-05T10:56:35Z</time>
</trkpt>
<trkpt lat="43.13181002" lon="-2.50294088">
<ele>657.861</ele>
<time>2018-03-05T10:56:55Z</time>
</trkpt>
<trkpt lat="43.13190402" lon="-2.50348788">
<ele>646.848</ele>
<time>2018-03-05T10:57:15Z</time>
</trkpt>
<trkpt lat="43.13194702" lon="-2.50375588">
<ele>641.930</ele>
<time>2018-03-05T10:57:35Z</time>
</trkpt>
<trkpt lat="43.13197902" lon="-2.50394888">
<ele>639.849</ele>
<time>2018-03-05T10:57:55Z</time>
</trkpt>
<trkpt lat="43.13198602" lon="-2.50405088">
<ele>639.002</ele>
<time>2018-03-05T10:58:15Z</time>
</trkpt>
<trkpt lat="43.13209602" lon="-2.50434588">
<ele>638.522</ele>
<time>2018-03-05T10:58:35Z</time>
</trkpt>
<trkpt lat="43.13219802" lon="-2.50456088">
<ele>637.708</ele>
<time>2018-03-05T10:58:55Z</time>
</trkpt>
<trkpt lat="43.13273002" lon="-2.50537588">
<ele>624.586</ele>
<time>2018-03-05T10:59:15Z</time>
</trkpt>
<trkpt lat="43.13354502" lon="-2.50661588">
<ele>594.267</ele>
<time>2018-03-05T10:59:35Z</time>
</trkpt>
<trkpt lat="43.13432002" lon="-2.50778988">
<ele>575.114</ele>
<time>2018-03-05T10:59:55Z</time>
</trkpt>
<trkpt lat="43.13448802" lon="-2.50796688">
<ele>569.469</ele>
<time>2018-03-05T11:00:15Z</time>
</trkpt>
<trkpt lat="43.13457002" lon="-2.50805288">
<ele>565.982</ele>
<time>2018-03-05T11:00:35Z</time>
</trkpt>
<trkpt lat="43.13484402" lon="-2.50797288">
<ele>558.914</ele>
<time>2018-03-05T11:00:55Z</time>
</trkpt>
<trkpt lat="43.13501602" lon="-2.50776888">
<ele>555.511</ele>
<time>2018-03-05T11:01:15Z</time>
</trkpt>
<trkpt lat="43.13568202" lon="-2.50694788">
<ele>539.363</ele>
<time>2018-03-05T11:01:35Z</time>
</trkpt>
<trkpt lat="43.13596002" lon="-2.50655088">
<ele>531.539</ele>
<time>2018-03-05T11:01:55Z</time>
</trkpt>
<trkpt lat="43.13603402" lon="-2.50651888">
<ele>529.601</ele>
<time>2018-03-05T11:02:15Z</time>
</trkpt>
<trkpt lat="43.13623802" lon="-2.50664788">
<ele>523.921</ele>
<time>2018-03-05T11:02:35Z</time>
</trkpt>
<trkpt lat="43.13728702" lon="-2.50719988">
<ele>501.208</ele>
<time>2018-03-05T11:02:55Z</time>
</trkpt>
<trkpt lat="43.13770202" lon="-2.50733988">
<ele>495.855</ele>
<time>2018-03-05T11:03:15Z</time>
</trkpt>
<trkpt lat="43.13796002" lon="-2.50758088">
<ele>492.826</ele>
<time>2018-03-05T11:03:35Z</time>
</trkpt>
<trkpt lat="43.13844202" lon="-2.50822988">
<ele>486.253</ele>
<time>2018-03-05T11:03:55Z</time>
</trkpt>
<trkpt lat="43.13864902" lon="-2.50851488">
<ele>483.598</ele>
<time>2018-03-05T11:04:15Z</time>
</trkpt>
<trkpt lat="43.13890702" lon="-2.50868088">
<ele>481.541</ele>
<time>2018-03-05T11:04:35Z</time>
</trkpt>
<trkpt lat="43.13933602" lon="-2.50887388">
<ele>479.023</ele>
<time>2018-03-05T11:04:55Z</time>
</trkpt>
<trkpt lat="43.13978202" lon="-2.50891688">
<ele>473.940</ele>
<time>2018-03-05T11:05:15Z</time>
</trkpt>
<trkpt lat="43.14054902" lon="-2.50877688">
<ele>464.582</ele>
<time>2018-03-05T11:05:35Z</time>
</trkpt>
<trkpt lat="43.14087002" lon="-2.50877688">
<ele>461.812</ele>
<time>2018-03-05T11:05:55Z</time>
</trkpt>
<trkpt lat="43.14115202" lon="-2.50848788">
<ele>461.032</ele>
<time>2018-03-05T11:06:15Z</time>
</trkpt>
<trkpt lat="43.14154402" lon="-2.50829488">
<ele>460.705</ele>
<time>2018-03-05T11:06:35Z</time>
</trkpt>
<trkpt lat="43.14234202" lon="-2.50819788">
<ele>465.708</ele>
<time>2018-03-05T11:06:55Z</time>
</trkpt>
<trkpt lat="43.14234202" lon="-2.50869188">
<ele>470.313</ele>
<time>2018-03-05T11:07:15Z</time>
</trkpt>
<trkpt lat="43.14237302" lon="-2.50917388">
<ele>475.294</ele>
<time>2018-03-05T11:07:35Z</time>
</trkpt>
<trkpt lat="43.14258502" lon="-2.50903488">
<ele>477.741</ele>
<time>2018-03-05T11:07:55Z</time>
</trkpt>
<trkpt lat="43.14286702" lon="-2.50898088">
<ele>483.886</ele>
<time>2018-03-05T11:08:15Z</time>
</trkpt>
<trkpt lat="43.14300802" lon="-2.50876688">
<ele>486.169</ele>
<time>2018-03-05T11:08:35Z</time>
</trkpt>
<trkpt lat="43.14332102" lon="-2.50858388">
<ele>493.221</ele>
<time>2018-03-05T11:08:55Z</time>
</trkpt>
<trkpt lat="43.14361802" lon="-2.50849788">
<ele>501.428</ele>
<time>2018-03-05T11:09:15Z</time>
</trkpt>
<trkpt lat="43.14431502" lon="-2.50801588">
<ele>517.830</ele>
<time>2018-03-05T11:09:35Z</time>
</trkpt>
<trkpt lat="43.14448702" lon="-2.50782288">
<ele>518.788</ele>
<time>2018-03-05T11:09:55Z</time>
</trkpt>
<trkpt lat="43.14475302" lon="-2.50767188">
<ele>522.824</ele>
<time>2018-03-05T11:10:15Z</time>
</trkpt>
<trkpt lat="43.14508202" lon="-2.50733988">
<ele>528.226</ele>
<time>2018-03-05T11:10:35Z</time>
</trkpt>
<trkpt lat="43.14588802" lon="-2.50652388">
<ele>537.808</ele>
<time>2018-03-05T11:10:55Z</time>
</trkpt>
<trkpt lat="43.14608202" lon="-2.50644888">
<ele>539.550</ele>
<time>2018-03-05T11:11:15Z</time>
</trkpt>
<trkpt lat="43.14612102" lon="-2.50653988">
<ele>541.511</ele>
<time>2018-03-05T11:11:35Z</time>
</trkpt>
<trkpt lat="43.14626602" lon="-2.50692088">
<ele>546.498</ele>
<time>2018-03-05T11:11:55Z</time>
</trkpt>
<trkpt lat="43.14647002" lon="-2.50752188">
<ele>555.033</ele>
<time>2018-03-05T11:12:15Z</time>
</trkpt>
<trkpt lat="43.14654002" lon="-2.50777388">
<ele>557.926</ele>
<time>2018-03-05T11:12:35Z</time>
</trkpt>
<trkpt lat="43.14664802" lon="-2.50833688">
<ele>566.928</ele>
<time>2018-03-05T11:12:55Z</time>
</trkpt>
<trkpt lat="43.14680402" lon="-2.50872388">
<ele>574.195</ele>
<time>2018-03-05T11:13:15Z</time>
</trkpt>
<trkpt lat="43.14700802" lon="-2.50900288">
<ele>578.827</ele>
<time>2018-03-05T11:13:35Z</time>
</trkpt>
<trkpt lat="43.14715602" lon="-2.50919588">
<ele>583.366</ele>
<time>2018-03-05T11:13:55Z</time>
</trkpt>
<trkpt lat="43.14733602" lon="-2.50954988">
<ele>591.929</ele>
<time>2018-03-05T11:14:15Z</time>
</trkpt>
<trkpt lat="43.14771202" lon="-2.50987188">
<ele>601.121</ele>
<time>2018-03-05T11:14:35Z</time>
</trkpt>
<trkpt lat="43.14801002" lon="-2.50979688">
<ele>603.208</ele>
<time>2018-03-05T11:14:55Z</time>
</trkpt>
<trkpt lat="43.14830702" lon="-2.50968888">
<ele>603.498</ele>
<time>2018-03-05T11:15:15Z</time>
</trkpt>
<trkpt lat="43.14874502" lon="-2.51010788">
<ele>611.329</ele>
<time>2018-03-05T11:15:35Z</time>
</trkpt>
<trkpt lat="43.14887102" lon="-2.51027888">
<ele>612.366</ele>
<time>2018-03-05T11:15:55Z</time>
</trkpt>
<trkpt lat="43.14873802" lon="-2.51033288">
<ele>614.491</ele>
<time>2018-03-05T11:16:15Z</time>
</trkpt>
<trkpt lat="43.14847102" lon="-2.51046188">
<ele>620.484</ele>
<time>2018-03-05T11:16:35Z</time>
</trkpt>
<trkpt lat="43.14811102" lon="-2.51066588">
<ele>630.346</ele>
<time>2018-03-05T11:16:55Z</time>
</trkpt>
<trkpt lat="43.14732902" lon="-2.51110588">
<ele>655.553</ele>
<time>2018-03-05T11:17:15Z</time>
</trkpt>
<trkpt lat="43.14694502" lon="-2.51124488">
<ele>666.855</ele>
<time>2018-03-05T11:17:35Z</time>
</trkpt>
<trkpt lat="43.14664002" lon="-2.51139488">
<ele>678.831</ele>
<time>2018-03-05T11:17:55Z</time>
</trkpt>
<trkpt lat="43.14660102" lon="-2.51140588">
<ele>678.661</ele>
<time>2018-03-05T11:18:15Z</time>
</trkpt>
<trkpt lat="43.14665502" lon="-2.51164188">
<ele>680.607</ele>
<time>2018-03-05T11:18:35Z</time>
</trkpt>
<trkpt lat="43.14662402" lon="-2.51174888">
<ele>679.608</ele>
<time>2018-03-05T11:18:55Z</time>
</trkpt>
<trkpt lat="43.14661602" lon="-2.51186688">
<ele>678.595</ele>
<time>2018-03-05T11:19:15Z</time>
</trkpt>
<trkpt lat="43.14664002" lon="-2.51207088">
<ele>677.466</ele>
<time>2018-03-05T11:19:35Z</time>
</trkpt>
<trkpt lat="43.14662402" lon="-2.51219988">
<ele>676.093</ele>
<time>2018-03-05T11:19:55Z</time>
</trkpt>
<trkpt lat="43.14665502" lon="-2.51234988">
<ele>673.918</ele>
<time>2018-03-05T11:20:15Z</time>
</trkpt>
<trkpt lat="43.14659302" lon="-2.51259688">
<ele>667.751</ele>
<time>2018-03-05T11:20:35Z</time>
</trkpt>
<trkpt lat="43.14663202" lon="-2.51317588">
<ele>656.393</ele>
<time>2018-03-05T11:20:55Z</time>
</trkpt>
<trkpt lat="43.14679602" lon="-2.51427088">
<ele>627.150</ele>
<time>2018-03-05T11:21:15Z</time>
</trkpt>
<trkpt lat="43.14696902" lon="-2.51537588">
<ele>606.922</ele>
<time>2018-03-05T11:21:35Z</time>
</trkpt>
<trkpt lat="43.14709402" lon="-2.51558988">
<ele>600.743</ele>
<time>2018-03-05T11:21:55Z</time>
</trkpt>
<trkpt lat="43.14711702" lon="-2.51571888">
<ele>598.464</ele>
<time>2018-03-05T11:22:15Z</time>
</trkpt>
<trkpt lat="43.14710902" lon="-2.51599788">
<ele>594.910</ele>
<time>2018-03-05T11:22:35Z</time>
</trkpt>
<trkpt lat="43.14721102" lon="-2.51624488">
<ele>592.008</ele>
<time>2018-03-05T11:22:55Z</time>
</trkpt>
<trkpt lat="43.14725002" lon="-2.51645888">
<ele>589.716</ele>
<time>2018-03-05T11:23:15Z</time>
</trkpt>
<trkpt lat="43.14731302" lon="-2.51680288">
<ele>587.097</ele>
<time>2018-03-05T11:23:35Z</time>
</trkpt>
<trkpt lat="43.14747002" lon="-2.51726388">
<ele>586.314</ele>
<time>2018-03-05T11:23:55Z</time>
</trkpt>
<trkpt lat="43.14770402" lon="-2.51776788">
<ele>584.719</ele>
<time>2018-03-05T11:24:15Z</time>
</trkpt>
<trkpt lat="43.14811102" lon="-2.51843288">
<ele>582.022</ele>
<time>2018-03-05T11:24:35Z</time>
</trkpt>
<trkpt lat="43.14826002" lon="-2.51879788">
<ele>578.764</ele>
<time>2018-03-05T11:24:55Z</time>
</trkpt>
<trkpt lat="43.14834602" lon="-2.51922688">
<ele>577.191</ele>
<time>2018-03-05T11:25:15Z</time>
</trkpt>
<trkpt lat="43.14841702" lon="-2.51966688">
<ele>572.743</ele>
<time>2018-03-05T11:25:35Z</time>
</trkpt>
<trkpt lat="43.14843202" lon="-2.51989188">
<ele>571.075</ele>
<time>2018-03-05T11:25:55Z</time>
</trkpt>
<trkpt lat="43.14851102" lon="-2.52012788">
<ele>571.028</ele>
<time>2018-03-05T11:26:15Z</time>
</trkpt>
<trkpt lat="43.14864402" lon="-2.52037488">
<ele>571.620</ele>
<time>2018-03-05T11:26:35Z</time>
</trkpt>
<trkpt lat="43.14876102" lon="-2.52058988">
<ele>569.408</ele>
<time>2018-03-05T11:26:55Z</time>
</trkpt>
<trkpt lat="43.14880002" lon="-2.52088988">
<ele>569.859</ele>
<time>2018-03-05T11:27:15Z</time>
</trkpt>
<trkpt lat="43.14885502" lon="-2.52108288">
<ele>570.220</ele>
<time>2018-03-05T11:27:35Z</time>
</trkpt>
<trkpt lat="43.14900402" lon="-2.52136188">
<ele>568.627</ele>
<time>2018-03-05T11:27:55Z</time>
</trkpt>
<trkpt lat="43.14913702" lon="-2.52171588">
<ele>568.282</ele>
<time>2018-03-05T11:28:15Z</time>
</trkpt>
<trkpt lat="43.14937902" lon="-2.52204888">
<ele>566.755</ele>
<time>2018-03-05T11:28:35Z</time>
</trkpt>
<trkpt lat="43.14952802" lon="-2.52225288">
<ele>566.447</ele>
<time>2018-03-05T11:28:55Z</time>
</trkpt>
<trkpt lat="43.14963802" lon="-2.52244588">
<ele>566.594</ele>
<time>2018-03-05T11:29:15Z</time>
</trkpt>
<trkpt lat="43.14972402" lon="-2.52257488">
<ele>567.336</ele>
<time>2018-03-05T11:29:35Z</time>
</trkpt>
<trkpt lat="43.14994302" lon="-2.52281088">
<ele>569.081</ele>
<time>2018-03-05T11:29:55Z</time>
</trkpt>
<trkpt lat="43.15020102" lon="-2.52305688">
<ele>571.061</ele>
<time>2018-03-05T11:30:15Z</time>
</trkpt>
<trkpt lat="43.15039702" lon="-2.52329288">
<ele>574.517</ele>
<time>2018-03-05T11:30:35Z</time>
</trkpt>
<trkpt lat="43.15046702" lon="-2.52357188">
<ele>579.508</ele>
<time>2018-03-05T11:30:55Z</time>
</trkpt>
<trkpt lat="43.15056102" lon="-2.52379788">
<ele>583.510</ele>
<time>2018-03-05T11:31:15Z</time>
</trkpt>
<trkpt lat="43.15061602" lon="-2.52402288">
<ele>586.611</ele>
<time>2018-03-05T11:31:35Z</time>
</trkpt>
<trkpt lat="43.15084302" lon="-2.52432288">
<ele>592.538</ele>
<time>2018-03-05T11:31:55Z</time>
</trkpt>
<trkpt lat="43.15116402" lon="-2.52441988">
<ele>598.163</ele>
<time>2018-03-05T11:32:15Z</time>
</trkpt>
<trkpt lat="43.15146202" lon="-2.52436588">
<ele>602.846</ele>
<time>2018-03-05T11:32:35Z</time>
</trkpt>
<trkpt lat="43.15159502" lon="-2.52415188">
<ele>608.438</ele>
<time>2018-03-05T11:32:55Z</time>
</trkpt>
<trkpt lat="43.15175102" lon="-2.52394788">
<ele>611.885</ele>
<time>2018-03-05T11:33:15Z</time>
</trkpt>
<trkpt lat="43.15217402" lon="-2.52387288">
<ele>611.237</ele>
<time>2018-03-05T11:33:35Z</time>
</trkpt>
<trkpt lat="43.15248702" lon="-2.52379788">
<ele>614.296</ele>
<time>2018-03-05T11:33:55Z</time>
</trkpt>
<trkpt lat="43.15278402" lon="-2.52417088">
<ele>623.231</ele>
<time>2018-03-05T11:34:15Z</time>
</trkpt>
<trkpt lat="43.15284802" lon="-2.52426188">
<ele>625.024</ele>
<time>2018-03-05T11:34:35Z</time>
</trkpt>
<trkpt lat="43.15292602" lon="-2.52436388">
<ele>627.108</ele>
<time>2018-03-05T11:34:55Z</time>
</trkpt>
<trkpt lat="43.15318302" lon="-2.52475288">
<ele>629.871</ele>
<time>2018-03-05T11:35:15Z</time>
</trkpt>
<trkpt lat="43.15332902" lon="-2.52493488">
<ele>630.552</ele>
<time>2018-03-05T11:35:35Z</time>
</trkpt>
<trkpt lat="43.15350602" lon="-2.52521888">
<ele>628.669</ele>
<time>2018-03-05T11:35:55Z</time>
</trkpt>
<trkpt lat="43.15365802" lon="-2.52546288">
<ele>627.914</ele>
<time>2018-03-05T11:36:15Z</time>
</trkpt>
<trkpt lat="43.15387002" lon="-2.52578788">
<ele>628.487</ele>
<time>2018-03-05T11:36:35Z</time>
</trkpt>
<trkpt lat="43.15395002" lon="-2.52594088">
<ele>627.919</ele>
<time>2018-03-05T11:36:55Z</time>
</trkpt>
<trkpt lat="43.15400302" lon="-2.52610988">
<ele>626.456</ele>
<time>2018-03-05T11:37:15Z</time>
</trkpt>
<trkpt lat="43.15403802" lon="-2.52624088">
<ele>627.528</ele>
<time>2018-03-05T11:37:35Z</time>
</trkpt>
<trkpt lat="43.15407702" lon="-2.52640488">
<ele>628.321</ele>
<time>2018-03-05T11:37:55Z</time>
</trkpt>
<trkpt lat="43.15410402" lon="-2.52653888">
<ele>628.241</ele>
<time>2018-03-05T11:38:15Z</time>
</trkpt>
<trkpt lat="43.15415302" lon="-2.52670488">
<ele>628.705</ele>
<time>2018-03-05T11:38:35Z</time>
</trkpt>
<trkpt lat="43.15424702" lon="-2.52688188">
<ele>630.508</ele>
<time>2018-03-05T11:38:55Z</time>
</trkpt>
<trkpt lat="43.15434702" lon="-2.52702688">
<ele>631.934</ele>
<time>2018-03-05T11:39:15Z</time>
</trkpt>
<trkpt lat="43.15442302" lon="-2.52712588">
<ele>633.175</ele>
<time>2018-03-05T11:39:35Z</time>
</trkpt>
<trkpt lat="43.15450702" lon="-2.52726288">
<ele>634.382</ele>
<time>2018-03-05T11:39:55Z</time>
</trkpt>
<trkpt lat="43.15467202" lon="-2.52753688">
<ele>638.747</ele>
<time>2018-03-05T11:40:15Z</time>
</trkpt>
<trkpt lat="43.15468002" lon="-2.52760088">
<ele>638.520</ele>
<time>2018-03-05T11:40:35Z</time>
</trkpt>
<trkpt lat="43.15475202" lon="-2.52780988">
<ele>639.012</ele>
<time>2018-03-05T11:40:55Z</time>
</trkpt>
<trkpt lat="43.15478102" lon="-2.52788288">
<ele>638.659</ele>
<time>2018-03-05T11:41:15Z</time>
</trkpt>
<trkpt lat="43.15481702" lon="-2.52790388">
<ele>638.591</ele>
<time>2018-03-05T11:41:35Z</time>
</trkpt>
<trkpt lat="43.15486002" lon="-2.52785888">
<ele>639.086</ele>
<time>2018-03-05T11:41:55Z</time>
</trkpt>
<trkpt lat="43.15496502" lon="-2.52754988">
<ele>644.660</ele>
<time>2018-03-05T11:42:15Z</time>
</trkpt>
<trkpt lat="43.15509802" lon="-2.52733788">
<ele>646.326</ele>
<time>2018-03-05T11:42:35Z</time>
</trkpt>
<trkpt lat="43.15536402" lon="-2.52705688">
<ele>646.608</ele>
<time>2018-03-05T11:42:55Z</time>
</trkpt>
<trkpt lat="43.15570902" lon="-2.52687688">
<ele>645.920</ele>
<time>2018-03-05T11:43:15Z</time>
</trkpt>
<trkpt lat="43.15609602" lon="-2.52669688">
<ele>648.121</ele>
<time>2018-03-05T11:43:35Z</time>
</trkpt>
<trkpt lat="43.15653602" lon="-2.52656588">
<ele>648.588</ele>
<time>2018-03-05T11:43:55Z</time>
</trkpt>
<trkpt lat="43.15673002" lon="-2.52650088">
<ele>648.933</ele>
<time>2018-03-05T11:44:15Z</time>
</trkpt>
<trkpt lat="43.15678702" lon="-2.52644788">
<ele>649.736</ele>
<time>2018-03-05T11:44:35Z</time>
</trkpt>
<trkpt lat="43.15684002" lon="-2.52639088">
<ele>650.328</ele>
<time>2018-03-05T11:44:55Z</time>
</trkpt>
<trkpt lat="43.15700802" lon="-2.52638888">
<ele>650.725</ele>
<time>2018-03-05T11:45:15Z</time>
</trkpt>
<trkpt lat="43.15738602" lon="-2.52642088">
<ele>653.777</ele>
<time>2018-03-05T11:45:35Z</time>
</trkpt>
<trkpt lat="43.15743802" lon="-2.52636188">
<ele>654.083</ele>
<time>2018-03-05T11:45:55Z</time>
</trkpt>
<trkpt lat="43.15755602" lon="-2.52634888">
<ele>655.125</ele>
<time>2018-03-05T11:46:15Z</time>
</trkpt>
<trkpt lat="43.15778702" lon="-2.52634588">
<ele>658.817</ele>
<time>2018-03-05T11:46:35Z</time>
</trkpt>
<trkpt lat="43.15789602" lon="-2.52630588">
<ele>660.808</ele>
<time>2018-03-05T11:46:55Z</time>
</trkpt>
<trkpt lat="43.15802302" lon="-2.52629988">
<ele>663.730</ele>
<time>2018-03-05T11:47:15Z</time>
</trkpt>
<trkpt lat="43.15815302" lon="-2.52638288">
<ele>665.811</ele>
<time>2018-03-05T11:47:35Z</time>
</trkpt>
<trkpt lat="43.15823102" lon="-2.52639888">
<ele>665.988</ele>
<time>2018-03-05T11:47:55Z</time>
</trkpt>
<trkpt lat="43.15835402" lon="-2.52639088">
<ele>665.543</ele>
<time>2018-03-05T11:48:15Z</time>
</trkpt>
<trkpt lat="43.15839102" lon="-2.52643388">
<ele>664.476</ele>
<time>2018-03-05T11:48:35Z</time>
</trkpt>
<trkpt lat="43.15846402" lon="-2.52653588">
<ele>662.848</ele>
<time>2018-03-05T11:48:55Z</time>
</trkpt>
<trkpt lat="43.15857502" lon="-2.52662988">
<ele>662.075</ele>
<time>2018-03-05T11:49:15Z</time>
</trkpt>
<trkpt lat="43.15867302" lon="-2.52663288">
<ele>660.647</ele>
<time>2018-03-05T11:49:35Z</time>
</trkpt>
<trkpt lat="43.15874702" lon="-2.52667788">
<ele>659.399</ele>
<time>2018-03-05T11:49:55Z</time>
</trkpt>
<trkpt lat="43.15881602" lon="-2.52673488">
<ele>657.307</ele>
<time>2018-03-05T11:50:15Z</time>
</trkpt>
<trkpt lat="43.15883502" lon="-2.52680488">
<ele>656.127</ele>
<time>2018-03-05T11:50:35Z</time>
</trkpt>
<trkpt lat="43.15885302" lon="-2.52689288">
<ele>654.808</ele>
<time>2018-03-05T11:50:55Z</time>
</trkpt>
<trkpt lat="43.15885902" lon="-2.52693888">
<ele>654.211</ele>
<time>2018-03-05T11:51:15Z</time>
</trkpt>
<trkpt lat="43.15900602" lon="-2.52714788">
<ele>645.612</ele>
<time>2018-03-05T11:51:35Z</time>
</trkpt>
<trkpt lat="43.15904502" lon="-2.52721788">
<ele>643.329</ele>
<time>2018-03-05T11:51:55Z</time>
</trkpt>
<trkpt lat="43.15904302" lon="-2.52727388">
<ele>642.074</ele>
<time>2018-03-05T11:52:15Z</time>
</trkpt>
<trkpt lat="43.15903102" lon="-2.52729488">
<ele>641.667</ele>
<time>2018-03-05T11:52:35Z</time>
</trkpt>
<trkpt lat="43.15911702" lon="-2.52731088">
<ele>640.399</ele>
<time>2018-03-05T11:52:55Z</time>
</trkpt>
<trkpt lat="43.15920502" lon="-2.52729488">
<ele>638.026</ele>
<time>2018-03-05T11:53:15Z</time>
</trkpt>
<trkpt lat="43.15920502" lon="-2.52725488">
<ele>638.618</ele>
<time>2018-03-05T11:53:35Z</time>
</trkpt>
<trkpt lat="43.15925602" lon="-2.52717988">
<ele>637.181</ele>
<time>2018-03-05T11:53:55Z</time>
</trkpt>
<trkpt lat="43.15943002" lon="-2.52682888">
<ele>631.661</ele>
<time>2018-03-05T11:54:15Z</time>
</trkpt>
<trkpt lat="43.15957702" lon="-2.52650388">
<ele>626.117</ele>
<time>2018-03-05T11:54:35Z</time>
</trkpt>
<trkpt lat="43.15961002" lon="-2.52633788">
<ele>624.508</ele>
<time>2018-03-05T11:54:55Z</time>
</trkpt>
<trkpt lat="43.15964702" lon="-2.52623088">
<ele>622.110</ele>
<time>2018-03-05T11:55:15Z</time>
</trkpt>
<trkpt lat="43.15966302" lon="-2.52608288">
<ele>620.331</ele>
<time>2018-03-05T11:55:35Z</time>
</trkpt>
<trkpt lat="43.15966502" lon="-2.52575588">
<ele>617.238</ele>
<time>2018-03-05T11:55:55Z</time>
</trkpt>
<trkpt lat="43.15966702" lon="-2.52559188">
<ele>615.233</ele>
<time>2018-03-05T11:56:15Z</time>
</trkpt>
<trkpt lat="43.15968502" lon="-2.52545488">
<ele>613.486</ele>
<time>2018-03-05T11:56:35Z</time>
</trkpt>
<trkpt lat="43.15970802" lon="-2.52537488">
<ele>612.668</ele>
<time>2018-03-05T11:56:55Z</time>
</trkpt>
<trkpt lat="43.15984302" lon="-2.52521888">
<ele>607.965</ele>
<time>2018-03-05T11:57:15Z</time>
</trkpt>
<trkpt lat="43.16011102" lon="-2.52479788">
<ele>596.647</ele>
<time>2018-03-05T11:57:35Z</time>
</trkpt>
<trkpt lat="43.16024202" lon="-2.52456188">
<ele>591.424</ele>
<time>2018-03-05T11:57:55Z</time>
</trkpt>
<trkpt lat="43.16033802" lon="-2.52438488">
<ele>588.304</ele>
<time>2018-03-05T11:58:15Z</time>
</trkpt>
<trkpt lat="43.16041002" lon="-2.52425088">
<ele>586.314</ele>
<time>2018-03-05T11:58:35Z</time>
</trkpt>
<trkpt lat="43.16045402" lon="-2.52418088">
<ele>585.708</ele>
<time>2018-03-05T11:58:55Z</time>
</trkpt>
<trkpt lat="43.16051202" lon="-2.52410588">
<ele>584.944</ele>
<time>2018-03-05T11:59:15Z</time>
</trkpt>
<trkpt lat="43.16059602" lon="-2.52404488">
<ele>583.695</ele>
<time>2018-03-05T11:59:35Z</time>
</trkpt>
<trkpt lat="43.16067302" lon="-2.52400388">
<ele>582.072</ele>
<time>2018-03-05T11:59:55Z</time>
</trkpt>
<trkpt lat="43.16078202" lon="-2.52396688">
<ele>580.277</ele>
<time>2018-03-05T12:00:15Z</time>
</trkpt>
<trkpt lat="43.16089402" lon="-2.52395088">
<ele>577.790</ele>
<time>2018-03-05T12:00:35Z</time>
</trkpt>
<trkpt lat="43.16134602" lon="-2.52402288">
<ele>565.282</ele>
<time>2018-03-05T12:00:55Z</time>
</trkpt>
<trkpt lat="43.16137802" lon="-2.52377588">
<ele>563.139</ele>
<time>2018-03-05T12:01:15Z</time>
</trkpt>
<trkpt lat="43.16126002" lon="-2.52327188">
<ele>558.431</ele>
<time>2018-03-05T12:01:35Z</time>
</trkpt>
<trkpt lat="43.16119002" lon="-2.52285388">
<ele>554.118</ele>
<time>2018-03-05T12:01:55Z</time>
</trkpt>
<trkpt lat="43.16111202" lon="-2.52254188">
<ele>551.698</ele>
<time>2018-03-05T12:02:15Z</time>
</trkpt>
<trkpt lat="43.16108802" lon="-2.52232788">
<ele>548.917</ele>
<time>2018-03-05T12:02:35Z</time>
</trkpt>
<trkpt lat="43.16124502" lon="-2.52199488">
<ele>544.008</ele>
<time>2018-03-05T12:02:55Z</time>
</trkpt>
<trkpt lat="43.16145602" lon="-2.52139388">
<ele>539.623</ele>
<time>2018-03-05T12:03:15Z</time>
</trkpt>
<trkpt lat="43.16165202" lon="-2.52088988">
<ele>535.294</ele>
<time>2018-03-05T12:03:35Z</time>
</trkpt>
<trkpt lat="43.16171402" lon="-2.52034288">
<ele>529.041</ele>
<time>2018-03-05T12:03:55Z</time>
</trkpt>
<trkpt lat="43.16179302" lon="-2.51999988">
<ele>525.826</ele>
<time>2018-03-05T12:04:15Z</time>
</trkpt>
<trkpt lat="43.16169102" lon="-2.51998888">
<ele>524.259</ele>
<time>2018-03-05T12:04:35Z</time>
</trkpt>
<trkpt lat="43.16158902" lon="-2.52013888">
<ele>522.631</ele>
<time>2018-03-05T12:04:55Z</time>
</trkpt>
<trkpt lat="43.16132302" lon="-2.52053588">
<ele>520.298</ele>
<time>2018-03-05T12:05:15Z</time>
</trkpt>
<trkpt lat="43.16089302" lon="-2.52115788">
<ele>515.390</ele>
<time>2018-03-05T12:05:35Z</time>
</trkpt>
<trkpt lat="43.16041502" lon="-2.52156588">
<ele>508.289</ele>
<time>2018-03-05T12:05:55Z</time>
</trkpt>
<trkpt lat="43.16015702" lon="-2.52197388">
<ele>503.906</ele>
<time>2018-03-05T12:06:15Z</time>
</trkpt>
<trkpt lat="43.16001602" lon="-2.52210288">
<ele>502.526</ele>
<time>2018-03-05T12:06:35Z</time>
</trkpt>
<trkpt lat="43.15958602" lon="-2.52231688">
<ele>499.208</ele>
<time>2018-03-05T12:06:55Z</time>
</trkpt>
<trkpt lat="43.15921802" lon="-2.52253188">
<ele>490.520</ele>
<time>2018-03-05T12:07:15Z</time>
</trkpt>
<trkpt lat="43.15892002" lon="-2.52281088">
<ele>489.241</ele>
<time>2018-03-05T12:07:35Z</time>
</trkpt>
<trkpt lat="43.15871702" lon="-2.52286388">
<ele>497.338</ele>
<time>2018-03-05T12:07:55Z</time>
</trkpt>
<trkpt lat="43.15856802" lon="-2.52255288">
<ele>491.683</ele>
<time>2018-03-05T12:08:15Z</time>
</trkpt>
<trkpt lat="43.15839602" lon="-2.52178088">
<ele>479.086</ele>
<time>2018-03-05T12:08:35Z</time>
</trkpt>
<trkpt lat="43.15823202" lon="-2.52150188">
<ele>480.538</ele>
<time>2018-03-05T12:08:55Z</time>
</trkpt>
<trkpt lat="43.15806702" lon="-2.52086888">
<ele>469.945</ele>
<time>2018-03-05T12:09:15Z</time>
</trkpt>
<trkpt lat="43.15795802" lon="-2.52075088">
<ele>463.447</ele>
<time>2018-03-05T12:09:35Z</time>
</trkpt>
<trkpt lat="43.15780902" lon="-2.52080388">
<ele>462.351</ele>
<time>2018-03-05T12:09:55Z</time>
</trkpt>
<trkpt lat="43.15751902" lon="-2.52099788">
<ele>462.301</ele>
<time>2018-03-05T12:10:15Z</time>
</trkpt>
<trkpt lat="43.15713602" lon="-2.52126588">
<ele>457.411</ele>
<time>2018-03-05T12:10:35Z</time>
</trkpt>
<trkpt lat="43.15729302" lon="-2.52101888">
<ele>455.008</ele>
<time>2018-03-05T12:10:55Z</time>
</trkpt>
<trkpt lat="43.15755102" lon="-2.52071888">
<ele>450.367</ele>
<time>2018-03-05T12:11:15Z</time>
</trkpt>
<trkpt lat="43.15818502" lon="-2.52021388">
<ele>443.028</ele>
<time>2018-03-05T12:11:35Z</time>
</trkpt>
<trkpt lat="43.15838802" lon="-2.52038588">
<ele>444.155</ele>
<time>2018-03-05T12:11:55Z</time>
</trkpt>
<trkpt lat="43.15876402" lon="-2.52122288">
<ele>440.910</ele>
<time>2018-03-05T12:12:15Z</time>
</trkpt>
<trkpt lat="43.15895202" lon="-2.52144788">
<ele>441.883</ele>
<time>2018-03-05T12:12:35Z</time>
</trkpt>
<trkpt lat="43.15928002" lon="-2.52106188">
<ele>436.455</ele>
<time>2018-03-05T12:12:55Z</time>
</trkpt>
<trkpt lat="43.15946002" lon="-2.52064288">
<ele>434.272</ele>
<time>2018-03-05T12:13:15Z</time>
</trkpt>
<trkpt lat="43.15986702" lon="-2.51987088">
<ele>431.554</ele>
<time>2018-03-05T12:13:35Z</time>
</trkpt>
<trkpt lat="43.16014102" lon="-2.51943088">
<ele>428.552</ele>
<time>2018-03-05T12:13:55Z</time>
</trkpt>
<trkpt lat="43.16025102" lon="-2.51878688">
<ele>430.253</ele>
<time>2018-03-05T12:14:15Z</time>
</trkpt>
<trkpt lat="43.16033702" lon="-2.51852988">
<ele>431.508</ele>
<time>2018-03-05T12:14:35Z</time>
</trkpt>
<trkpt lat="43.16059502" lon="-2.51822888">
<ele>432.408</ele>
<time>2018-03-05T12:14:55Z</time>
</trkpt>
<trkpt lat="43.16071302" lon="-2.51790788">
<ele>422.427</ele>
<time>2018-03-05T12:15:15Z</time>
</trkpt>
<trkpt lat="43.16082202" lon="-2.51740288">
<ele>418.868</ele>
<time>2018-03-05T12:15:35Z</time>
</trkpt>
<trkpt lat="43.16078302" lon="-2.51711388">
<ele>414.645</ele>
<time>2018-03-05T12:15:55Z</time>
</trkpt>
<trkpt lat="43.16079102" lon="-2.51689888">
<ele>416.620</ele>
<time>2018-03-05T12:16:15Z</time>
</trkpt>
<trkpt lat="43.16079102" lon="-2.51649088">
<ele>414.563</ele>
<time>2018-03-05T12:16:35Z</time>
</trkpt>
<trkpt lat="43.16115902" lon="-2.51491388">
<ele>410.075</ele>
<time>2018-03-05T12:16:55Z</time>
</trkpt>
<trkpt lat="43.16123702" lon="-2.51453888">
<ele>405.152</ele>
<time>2018-03-05T12:17:15Z</time>
</trkpt>
<trkpt lat="43.16146402" lon="-2.51440988">
<ele>408.584</ele>
<time>2018-03-05T12:17:35Z</time>
</trkpt>
<trkpt lat="43.16168302" lon="-2.51419488">
<ele>405.544</ele>
<time>2018-03-05T12:17:55Z</time>
</trkpt>
<trkpt lat="43.16169902" lon="-2.51400188">
<ele>403.505</ele>
<time>2018-03-05T12:18:15Z</time>
</trkpt>
<trkpt lat="43.16174602" lon="-2.51376588">
<ele>402.415</ele>
<time>2018-03-05T12:18:35Z</time>
</trkpt>
<trkpt lat="43.16179302" lon="-2.51356188">
<ele>400.608</ele>
<time>2018-03-05T12:18:55Z</time>
</trkpt>
<trkpt lat="43.16241902" lon="-2.51305788">
<ele>402.056</ele>
<time>2018-03-05T12:19:15Z</time>
</trkpt>
<trkpt lat="43.16219902" lon="-2.51305788">
<ele>396.757</ele>
<time>2018-03-05T12:19:35Z</time>
</trkpt>
<trkpt lat="43.16185502" lon="-2.51308988">
<ele>391.234</ele>
<time>2018-03-05T12:19:55Z</time>
</trkpt>
<trkpt lat="43.16154302" lon="-2.51312288">
<ele>385.879</ele>
<time>2018-03-05T12:20:15Z</time>
</trkpt>
<trkpt lat="43.16145902" lon="-2.51313888">
<ele>384.232</ele>
<time>2018-03-05T12:20:35Z</time>
</trkpt>
<trkpt lat="43.16138902" lon="-2.51316288">
<ele>382.894</ele>
<time>2018-03-05T12:20:55Z</time>
</trkpt>
<trkpt lat="43.16135002" lon="-2.51314888">
<ele>381.211</ele>
<time>2018-03-05T12:21:15Z</time>
</trkpt>
<trkpt lat="43.16132002" lon="-2.51310388">
<ele>379.973</ele>
<time>2018-03-05T12:21:35Z</time>
</trkpt>
<trkpt lat="43.16132802" lon="-2.51299088">
<ele>378.884</ele>
<time>2018-03-05T12:21:55Z</time>
</trkpt>
<trkpt lat="43.16134802" lon="-2.51295088">
<ele>378.607</ele>
<time>2018-03-05T12:22:15Z</time>
</trkpt>
<trkpt lat="43.16147502" lon="-2.51270888">
<ele>374.217</ele>
<time>2018-03-05T12:22:35Z</time>
</trkpt>
<trkpt lat="43.16161002" lon="-2.51256188">
<ele>370.408</ele>
<time>2018-03-05T12:22:55Z</time>
</trkpt>
<trkpt lat="43.16169602" lon="-2.51242288">
<ele>368.080</ele>
<time>2018-03-05T12:23:15Z</time>
</trkpt>
<trkpt lat="43.16172502" lon="-2.51229888">
<ele>366.051</ele>
<time>2018-03-05T12:23:35Z</time>
</trkpt>
<trkpt lat="43.16173702" lon="-2.51219688">
<ele>364.168</ele>
<time>2018-03-05T12:23:55Z</time>
</trkpt>
<trkpt lat="43.16175102" lon="-2.51195788">
<ele>360.453</ele>
<time>2018-03-05T12:24:15Z</time>
</trkpt>
<trkpt lat="43.16175302" lon="-2.51186688">
<ele>358.766</ele>
<time>2018-03-05T12:24:35Z</time>
</trkpt>
<trkpt lat="43.16186402" lon="-2.51173288">
<ele>357.088</ele>
<time>2018-03-05T12:24:55Z</time>
</trkpt>
<trkpt lat="43.16217102" lon="-2.51157988">
<ele>352.875</ele>
<time>2018-03-05T12:25:15Z</time>
</trkpt>
<trkpt lat="43.16219702" lon="-2.51154488">
<ele>351.647</ele>
<time>2018-03-05T12:25:35Z</time>
</trkpt>
<trkpt lat="43.16218502" lon="-2.51151888">
<ele>350.652</ele>
<time>2018-03-05T12:25:55Z</time>
</trkpt>
<trkpt lat="43.16215402" lon="-2.51149988">
<ele>349.953</ele>
<time>2018-03-05T12:26:15Z</time>
</trkpt>
<trkpt lat="43.16190502" lon="-2.51142688">
<ele>346.308</ele>
<time>2018-03-05T12:26:35Z</time>
</trkpt>
<trkpt lat="43.16181702" lon="-2.51141388">
<ele>345.508</ele>
<time>2018-03-05T12:26:55Z</time>
</trkpt>
<trkpt lat="43.16169602" lon="-2.51142688">
<ele>345.577</ele>
<time>2018-03-05T12:27:15Z</time>
</trkpt>
<trkpt lat="43.16155702" lon="-2.51148088">
<ele>343.678</ele>
<time>2018-03-05T12:27:35Z</time>
</trkpt>
<trkpt lat="43.16135202" lon="-2.51157988">
<ele>340.295</ele>
<time>2018-03-05T12:27:55Z</time>
</trkpt>
<trkpt lat="43.16115402" lon="-2.51166888">
<ele>337.320</ele>
<time>2018-03-05T12:28:15Z</time>
</trkpt>
<trkpt lat="43.16106402" lon="-2.51171988">
<ele>334.893</ele>
<time>2018-03-05T12:28:35Z</time>
</trkpt>
<trkpt lat="43.16102902" lon="-2.51175988">
<ele>333.835</ele>
<time>2018-03-05T12:28:55Z</time>
</trkpt>
<trkpt lat="43.16100702" lon="-2.51182388">
<ele>334.092</ele>
<time>2018-03-05T12:29:15Z</time>
</trkpt>
<trkpt lat="43.16098602" lon="-2.51186988">
<ele>333.844</ele>
<time>2018-03-05T12:29:35Z</time>
</trkpt>
<trkpt lat="43.16095602" lon="-2.51188288">
<ele>332.678</ele>
<time>2018-03-05T12:29:55Z</time>
</trkpt>
<trkpt lat="43.16094502" lon="-2.51185888">
<ele>331.733</ele>
<time>2018-03-05T12:30:15Z</time>
</trkpt>
<trkpt lat="43.16095002" lon="-2.51180288">
<ele>330.926</ele>
<time>2018-03-05T12:30:35Z</time>
</trkpt>
<trkpt lat="43.16099202" lon="-2.51148388">
<ele>326.308</ele>
<time>2018-03-05T12:30:55Z</time>
</trkpt>
<trkpt lat="43.16101902" lon="-2.51144888">
<ele>326.519</ele>
<time>2018-03-05T12:31:15Z</time>
</trkpt>
<trkpt lat="43.16108402" lon="-2.51138988">
<ele>327.270</ele>
<time>2018-03-05T12:31:35Z</time>
</trkpt>
<trkpt lat="43.16124202" lon="-2.51120988">
<ele>323.957</ele>
<time>2018-03-05T12:31:55Z</time>
</trkpt>
<trkpt lat="43.16130502" lon="-2.51112388">
<ele>322.142</ele>
<time>2018-03-05T12:32:15Z</time>
</trkpt>
<trkpt lat="43.16143002" lon="-2.51102488">
<ele>320.825</ele>
<time>2018-03-05T12:32:35Z</time>
</trkpt>
<trkpt lat="43.16170402" lon="-2.51096888">
<ele>324.287</ele>
<time>2018-03-05T12:32:55Z</time>
</trkpt>
<trkpt lat="43.16185002" lon="-2.51090188">
<ele>322.174</ele>
<time>2018-03-05T12:33:15Z</time>
</trkpt>
<trkpt lat="43.16195402" lon="-2.51082688">
<ele>320.036</ele>
<time>2018-03-05T12:33:35Z</time>
</trkpt>
<trkpt lat="43.16220702" lon="-2.51061988">
<ele>319.732</ele>
<time>2018-03-05T12:33:55Z</time>
</trkpt>
<trkpt lat="43.16230002" lon="-2.51057988">
<ele>318.292</ele>
<time>2018-03-05T12:34:15Z</time>
</trkpt>
<trkpt lat="43.16242002" lon="-2.51059888">
<ele>318.011</ele>
<time>2018-03-05T12:34:35Z</time>
</trkpt>
<trkpt lat="43.16250402" lon="-2.51058288">
<ele>316.908</ele>
<time>2018-03-05T12:34:55Z</time>
</trkpt>
<trkpt lat="43.16252002" lon="-2.51053188">
<ele>315.515</ele>
<time>2018-03-05T12:35:15Z</time>
</trkpt>
<trkpt lat="43.16248802" lon="-2.51049688">
<ele>314.266</ele>
<time>2018-03-05T12:35:35Z</time>
</trkpt>
<trkpt lat="43.16242202" lon="-2.51044588">
<ele>313.013</ele>
<time>2018-03-05T12:35:55Z</time>
</trkpt>
<trkpt lat="43.16235902" lon="-2.51041588">
<ele>312.588</ele>
<time>2018-03-05T12:36:15Z</time>
</trkpt>
<trkpt lat="43.16230402" lon="-2.51038888">
<ele>312.011</ele>
<time>2018-03-05T12:36:35Z</time>
</trkpt>
<trkpt lat="43.16226102" lon="-2.51037588">
<ele>311.933</ele>
<time>2018-03-05T12:36:55Z</time>
</trkpt>
<trkpt lat="43.16221802" lon="-2.51038388">
<ele>312.470</ele>
<time>2018-03-05T12:37:15Z</time>
</trkpt>
<trkpt lat="43.16197002" lon="-2.51048588">
<ele>311.222</ele>
<time>2018-03-05T12:37:35Z</time>
</trkpt>
<trkpt lat="43.16193302" lon="-2.51049388">
<ele>310.682</ele>
<time>2018-03-05T12:37:55Z</time>
</trkpt>
<trkpt lat="43.16191102" lon="-2.51048288">
<ele>310.343</ele>
<time>2018-03-05T12:38:15Z</time>
</trkpt>
<trkpt lat="43.16190302" lon="-2.51044788">
<ele>310.117</ele>
<time>2018-03-05T12:38:35Z</time>
</trkpt>
<trkpt lat="43.16185202" lon="-2.50999188">
<ele>307.008</ele>
<time>2018-03-05T12:38:55Z</time>
</trkpt>
<trkpt lat="43.16177802" lon="-2.50890088">
<ele>305.680</ele>
<time>2018-03-05T12:39:15Z</time>
</trkpt>
<trkpt lat="43.16173502" lon="-2.50845588">
<ele>307.111</ele>
<time>2018-03-05T12:39:35Z</time>
</trkpt>
<trkpt lat="43.16170202" lon="-2.50817888">
<ele>311.388</ele>
<time>2018-03-05T12:39:55Z</time>
</trkpt>
<trkpt lat="43.16169202" lon="-2.50814188">
<ele>312.453</ele>
<time>2018-03-05T12:40:15Z</time>
</trkpt>
<trkpt lat="43.16164502" lon="-2.50820088">
<ele>313.216</ele>
<time>2018-03-05T12:40:35Z</time>
</trkpt>
<trkpt lat="43.16142002" lon="-2.50841488">
<ele>314.578</ele>
<time>2018-03-05T12:40:55Z</time>
</trkpt>
<trkpt lat="43.16127902" lon="-2.50852488">
<ele>312.785</ele>
<time>2018-03-05T12:41:15Z</time>
</trkpt>
<trkpt lat="43.16112302" lon="-2.50856788">
<ele>312.927</ele>
<time>2018-03-05T12:41:35Z</time>
</trkpt>
<trkpt lat="43.16098202" lon="-2.50852488">
<ele>313.756</ele>
<time>2018-03-05T12:41:55Z</time>
</trkpt>
<trkpt lat="43.16090902" lon="-2.50851188">
<ele>313.459</ele>
<time>2018-03-05T12:42:15Z</time>
</trkpt>
<trkpt lat="43.16087202" lon="-2.50843088">
<ele>316.014</ele>
<time>2018-03-05T12:42:35Z</time>
</trkpt>
<trkpt lat="43.16059202" lon="-2.50814688">
<ele>321.108</ele>
<time>2018-03-05T12:42:55Z</time>
</trkpt>
<trkpt lat="43.16049902" lon="-2.50805288">
<ele>322.357</ele>
<time>2018-03-05T12:43:15Z</time>
</trkpt>
<trkpt lat="43.16046302" lon="-2.50799088">
<ele>323.878</ele>
<time>2018-03-05T12:43:35Z</time>
</trkpt>
<trkpt lat="43.16024802" lon="-2.50776588">
<ele>326.525</ele>
<time>2018-03-05T12:43:55Z</time>
</trkpt>
<trkpt lat="43.15990602" lon="-2.50728288">
<ele>331.730</ele>
<time>2018-03-05T12:44:15Z</time>
</trkpt>
<trkpt lat="43.15981302" lon="-2.50700688">
<ele>336.773</ele>
<time>2018-03-05T12:44:35Z</time>
</trkpt>
<trkpt lat="43.15964002" lon="-2.50683488">
<ele>337.395</ele>
<time>2018-03-05T12:44:55Z</time>
</trkpt>
<trkpt lat="43.15931202" lon="-2.50637388">
<ele>346.252</ele>
<time>2018-03-05T12:45:15Z</time>
</trkpt>
<trkpt lat="43.15921802" lon="-2.50619188">
<ele>349.024</ele>
<time>2018-03-05T12:45:35Z</time>
</trkpt>
<trkpt lat="43.15917102" lon="-2.50597688">
<ele>354.027</ele>
<time>2018-03-05T12:45:55Z</time>
</trkpt>
<trkpt lat="43.15896702" lon="-2.50574088">
<ele>353.668</ele>
<time>2018-03-05T12:46:15Z</time>
</trkpt>
<trkpt lat="43.15881902" lon="-2.50539788">
<ele>357.914</ele>
<time>2018-03-05T12:46:35Z</time>
</trkpt>
<trkpt lat="43.15866202" lon="-2.50507588">
<ele>359.608</ele>
<time>2018-03-05T12:46:55Z</time>
</trkpt>
<trkpt lat="43.15865402" lon="-2.50463588">
<ele>370.974</ele>
<time>2018-03-05T12:47:15Z</time>
</trkpt>
<trkpt lat="43.15860002" lon="-2.50415288">
<ele>376.485</ele>
<time>2018-03-05T12:47:35Z</time>
</trkpt>
<trkpt lat="43.15865402" lon="-2.50366988">
<ele>386.072</ele>
<time>2018-03-05T12:47:55Z</time>
</trkpt>
<trkpt lat="43.15865402" lon="-2.50331588">
<ele>389.287</ele>
<time>2018-03-05T12:48:15Z</time>
</trkpt>
<trkpt lat="43.15867802" lon="-2.50304788">
<ele>394.520</ele>
<time>2018-03-05T12:48:35Z</time>
</trkpt>
<trkpt lat="43.15858402" lon="-2.50290888">
<ele>398.072</ele>
<time>2018-03-05T12:48:55Z</time>
</trkpt>
<trkpt lat="43.15845102" lon="-2.50272588">
<ele>404.139</ele>
<time>2018-03-05T12:49:15Z</time>
</trkpt>
<trkpt lat="43.15832602" lon="-2.50221088">
<ele>418.011</ele>
<time>2018-03-05T12:49:35Z</time>
</trkpt>
<trkpt lat="43.15827102" lon="-2.50132088">
<ele>435.898</ele>
<time>2018-03-05T12:49:55Z</time>
</trkpt>
<trkpt lat="43.15827902" lon="-2.50058088">
<ele>443.915</ele>
<time>2018-03-05T12:50:15Z</time>
</trkpt>
<trkpt lat="43.15831002" lon="-2.50020488">
<ele>450.126</ele>
<time>2018-03-05T12:50:35Z</time>
</trkpt>
<trkpt lat="43.15837302" lon="-2.50008688">
<ele>455.408</ele>
<time>2018-03-05T12:50:55Z</time>
</trkpt>
<trkpt lat="43.15848202" lon="-2.50032288">
<ele>458.731</ele>
<time>2018-03-05T12:51:15Z</time>
</trkpt>
<trkpt lat="43.15864602" lon="-2.50053788">
<ele>466.252</ele>
<time>2018-03-05T12:51:35Z</time>
</trkpt>
<trkpt lat="43.15889702" lon="-2.50105288">
<ele>475.069</ele>
<time>2018-03-05T12:51:55Z</time>
</trkpt>
<trkpt lat="43.15939802" lon="-2.50136388">
<ele>488.064</ele>
<time>2018-03-05T12:52:15Z</time>
</trkpt>
<trkpt lat="43.15971902" lon="-2.50166388">
<ele>491.967</ele>
<time>2018-03-05T12:52:35Z</time>
</trkpt>
<trkpt lat="43.15988302" lon="-2.50184688">
<ele>494.749</ele>
<time>2018-03-05T12:52:55Z</time>
</trkpt>
<trkpt lat="43.16012602" lon="-2.50198588">
<ele>497.916</ele>
<time>2018-03-05T12:53:15Z</time>
</trkpt>
<trkpt lat="43.16018002" lon="-2.50187888">
<ele>500.918</ele>
<time>2018-03-05T12:53:35Z</time>
</trkpt>
<trkpt lat="43.16004702" lon="-2.50164288">
<ele>506.031</ele>
<time>2018-03-05T12:53:55Z</time>
</trkpt>
<trkpt lat="43.15967202" lon="-2.50064488">
<ele>521.661</ele>
<time>2018-03-05T12:54:15Z</time>
</trkpt>
<trkpt lat="43.15953102" lon="-2.50023688">
<ele>524.007</ele>
<time>2018-03-05T12:54:35Z</time>
</trkpt>
<trkpt lat="43.15949202" lon="-2.49956088">
<ele>533.708</ele>
<time>2018-03-05T12:54:55Z</time>
</trkpt>
<trkpt lat="43.15954602" lon="-2.49991488">
<ele>530.415</ele>
<time>2018-03-05T12:55:15Z</time>
</trkpt>
<trkpt lat="43.15977302" lon="-2.50047288">
<ele>529.776</ele>
<time>2018-03-05T12:55:35Z</time>
</trkpt>
<trkpt lat="43.15994602" lon="-2.50063388">
<ele>531.313</ele>
<time>2018-03-05T12:55:55Z</time>
</trkpt>
<trkpt lat="43.16009202" lon="-2.50065588">
<ele>531.168</ele>
<time>2018-03-05T12:56:15Z</time>
</trkpt>
<trkpt lat="43.16006902" lon="-2.50056988">
<ele>533.411</ele>
<time>2018-03-05T12:56:35Z</time>
</trkpt>
<trkpt lat="43.16006502" lon="-2.50006588">
<ele>544.733</ele>
<time>2018-03-05T12:56:55Z</time>
</trkpt>
<trkpt lat="43.16006502" lon="-2.49988888">
<ele>548.850</ele>
<time>2018-03-05T12:57:15Z</time>
</trkpt>
<trkpt lat="43.16006502" lon="-2.49953388">
<ele>557.062</ele>
<time>2018-03-05T12:57:35Z</time>
</trkpt>
<trkpt lat="43.16003402" lon="-2.49933588">
<ele>562.559</ele>
<time>2018-03-05T12:57:55Z</time>
</trkpt>
<trkpt lat="43.16003002" lon="-2.49892788">
<ele>572.003</ele>
<time>2018-03-05T12:58:15Z</time>
</trkpt>
<trkpt lat="43.16000202" lon="-2.49880488">
<ele>575.423</ele>
<time>2018-03-05T12:58:35Z</time>
</trkpt>
<trkpt lat="43.15998702" lon="-2.49857388">
<ele>579.408</ele>
<time>2018-03-05T12:58:55Z</time>
</trkpt>
<trkpt lat="43.15997502" lon="-2.49838088">
<ele>583.247</ele>
<time>2018-03-05T12:59:15Z</time>
</trkpt>
<trkpt lat="43.16003402" lon="-2.49805388">
<ele>591.268</ele>
<time>2018-03-05T12:59:35Z</time>
</trkpt>
<trkpt lat="43.16010002" lon="-2.49773188">
<ele>597.275</ele>
<time>2018-03-05T12:59:55Z</time>
</trkpt>
<trkpt lat="43.16006502" lon="-2.49757088">
<ele>602.080</ele>
<time>2018-03-05T13:00:15Z</time>
</trkpt>
<trkpt lat="43.16005302" lon="-2.49730288">
<ele>608.833</ele>
<time>2018-03-05T13:00:35Z</time>
</trkpt>
<trkpt lat="43.16003802" lon="-2.49711488">
<ele>613.675</ele>
<time>2018-03-05T13:00:55Z</time>
</trkpt>
<trkpt lat="43.15998702" lon="-2.49681488">
<ele>622.152</ele>
<time>2018-03-05T13:01:15Z</time>
</trkpt>
<trkpt lat="43.15994002" lon="-2.49653588">
<ele>628.294</ele>
<time>2018-03-05T13:01:35Z</time>
</trkpt>
<trkpt lat="43.15989302" lon="-2.49626788">
<ele>634.156</ele>
<time>2018-03-05T13:01:55Z</time>
</trkpt>
<trkpt lat="43.15984602" lon="-2.49593988">
<ele>642.359</ele>
<time>2018-03-05T13:02:15Z</time>
</trkpt>
<trkpt lat="43.15987302" lon="-2.49557588">
<ele>648.414</ele>
<time>2018-03-05T13:02:35Z</time>
</trkpt>
<trkpt lat="43.15984602" lon="-2.49516188">
<ele>652.808</ele>
<time>2018-03-05T13:02:55Z</time>
</trkpt>
<trkpt lat="43.15997102" lon="-2.49442788">
<ele>656.517</ele>
<time>2018-03-05T13:03:15Z</time>
</trkpt>
<trkpt lat="43.16002602" lon="-2.49416988">
<ele>656.848</ele>
<time>2018-03-05T13:03:35Z</time>
</trkpt>
<trkpt lat="43.16012802" lon="-2.49400388">
<ele>655.745</ele>
<time>2018-03-05T13:03:55Z</time>
</trkpt>
<trkpt lat="43.16024102" lon="-2.49385388">
<ele>655.760</ele>
<time>2018-03-05T13:04:15Z</time>
</trkpt>
<trkpt lat="43.16035102" lon="-2.49376188">
<ele>655.733</ele>
<time>2018-03-05T13:04:35Z</time>
</trkpt>
<trkpt lat="43.16065002" lon="-2.49352088">
<ele>654.755</ele>
<time>2018-03-05T13:04:55Z</time>
</trkpt>
<trkpt lat="43.16118202" lon="-2.49356388">
<ele>657.732</ele>
<time>2018-03-05T13:05:15Z</time>
</trkpt>
<trkpt lat="43.16158102" lon="-2.49369288">
<ele>663.664</ele>
<time>2018-03-05T13:05:35Z</time>
</trkpt>
<trkpt lat="43.16212102" lon="-2.49385388">
<ele>673.975</ele>
<time>2018-03-05T13:05:55Z</time>
</trkpt>
<trkpt lat="43.16230702" lon="-2.49387988">
<ele>673.728</ele>
<time>2018-03-05T13:06:15Z</time>
</trkpt>
<trkpt lat="43.16251102" lon="-2.49412688">
<ele>680.420</ele>
<time>2018-03-05T13:06:35Z</time>
</trkpt>
<trkpt lat="43.16264002" lon="-2.49436888">
<ele>685.208</ele>
<time>2018-03-05T13:06:55Z</time>
</trkpt>
<trkpt lat="43.16273402" lon="-2.49457188">
<ele>687.859</ele>
<time>2018-03-05T13:07:15Z</time>
</trkpt>
<trkpt lat="43.16273802" lon="-2.49466888">
<ele>692.380</ele>
<time>2018-03-05T13:07:35Z</time>
</trkpt>
<trkpt lat="43.16270202" lon="-2.49474388">
<ele>698.397</ele>
<time>2018-03-05T13:07:55Z</time>
</trkpt>
<trkpt lat="43.16263602" lon="-2.49472788">
<ele>702.462</ele>
<time>2018-03-05T13:08:15Z</time>
</trkpt>
<trkpt lat="43.16256202" lon="-2.49465288">
<ele>704.685</ele>
<time>2018-03-05T13:08:35Z</time>
</trkpt>
<trkpt lat="43.16237402" lon="-2.49458288">
<ele>713.157</ele>
<time>2018-03-05T13:08:55Z</time>
</trkpt>
<trkpt lat="43.16228002" lon="-2.49453488">
<ele>716.584</ele>
<time>2018-03-05T13:09:15Z</time>
</trkpt>
<trkpt lat="43.16218602" lon="-2.49448688">
<ele>718.686</ele>
<time>2018-03-05T13:09:35Z</time>
</trkpt>
<trkpt lat="43.16213102" lon="-2.49451288">
<ele>719.622</ele>
<time>2018-03-05T13:09:55Z</time>
</trkpt>
<trkpt lat="43.16210002" lon="-2.49454588">
<ele>720.462</ele>
<time>2018-03-05T13:10:15Z</time>
</trkpt>
<trkpt lat="43.16226402" lon="-2.49485688">
<ele>723.808</ele>
<time>2018-03-05T13:10:35Z</time>
</trkpt>
<trkpt lat="43.16231102" lon="-2.49493688">
<ele>723.308</ele>
<time>2018-03-05T13:10:55Z</time>
</trkpt>
<trkpt lat="43.16223102" lon="-2.49486188">
<ele>724.734</ele>
<time>2018-03-05T13:11:15Z</time>
</trkpt>
<trkpt lat="43.16218402" lon="-2.49479788">
<ele>724.165</ele>
<time>2018-03-05T13:11:35Z</time>
</trkpt>
<trkpt lat="43.16209802" lon="-2.49488388">
<ele>720.692</ele>
<time>2018-03-05T13:11:55Z</time>
</trkpt>
<trkpt lat="43.16205902" lon="-2.49507688">
<ele>713.767</ele>
<time>2018-03-05T13:12:15Z</time>
</trkpt>
<trkpt lat="43.16194102" lon="-2.49526988">
<ele>700.120</ele>
<time>2018-03-05T13:12:35Z</time>
</trkpt>
<trkpt lat="43.16187902" lon="-2.49559188">
<ele>681.172</ele>
<time>2018-03-05T13:12:55Z</time>
</trkpt>
<trkpt lat="43.16180802" lon="-2.49568788">
<ele>672.069</ele>
<time>2018-03-05T13:13:15Z</time>
</trkpt>
<trkpt lat="43.16172202" lon="-2.49573088">
<ele>664.921</ele>
<time>2018-03-05T13:13:35Z</time>
</trkpt>
<trkpt lat="43.16163602" lon="-2.49574188">
<ele>659.911</ele>
<time>2018-03-05T13:13:55Z</time>
</trkpt>
<trkpt lat="43.16148702" lon="-2.49555888">
<ele>661.421</ele>
<time>2018-03-05T13:14:15Z</time>
</trkpt>
<trkpt lat="43.16134602" lon="-2.49543088">
<ele>660.103</ele>
<time>2018-03-05T13:14:35Z</time>
</trkpt>
<trkpt lat="43.16120602" lon="-2.49529088">
<ele>659.008</ele>
<time>2018-03-05T13:14:55Z</time>
</trkpt>
<trkpt lat="43.16099402" lon="-2.49512988">
<ele>653.733</ele>
<time>2018-03-05T13:15:15Z</time>
</trkpt>
<trkpt lat="43.16068902" lon="-2.49505488">
<ele>643.894</ele>
<time>2018-03-05T13:15:35Z</time>
</trkpt>
<trkpt lat="43.16061102" lon="-2.49503388">
<ele>642.081</ele>
<time>2018-03-05T13:15:55Z</time>
</trkpt>
<trkpt lat="43.16054002" lon="-2.49458288">
<ele>647.626</ele>
<time>2018-03-05T13:16:15Z</time>
</trkpt>
<trkpt lat="43.16038402" lon="-2.49374588">
<ele>655.789</ele>
<time>2018-03-05T13:16:35Z</time>
</trkpt>
<trkpt lat="43.16031302" lon="-2.49369288">
<ele>655.491</ele>
<time>2018-03-05T13:16:55Z</time>
</trkpt>
<trkpt lat="43.16018002" lon="-2.49357488">
<ele>653.878</ele>
<time>2018-03-05T13:17:15Z</time>
</trkpt>
<trkpt lat="43.15999302" lon="-2.49322088">
<ele>650.070</ele>
<time>2018-03-05T13:17:35Z</time>
</trkpt>
<trkpt lat="43.16001602" lon="-2.49305988">
<ele>648.667</ele>
<time>2018-03-05T13:17:55Z</time>
</trkpt>
<trkpt lat="43.15978102" lon="-2.49257688">
<ele>645.581</ele>
<time>2018-03-05T13:18:15Z</time>
</trkpt>
<trkpt lat="43.15957802" lon="-2.49242688">
<ele>646.419</ele>
<time>2018-03-05T13:18:35Z</time>
</trkpt>
<trkpt lat="43.15930402" lon="-2.49232988">
<ele>646.208</ele>
<time>2018-03-05T13:18:55Z</time>
</trkpt>
<trkpt lat="43.15874802" lon="-2.49200788">
<ele>642.068</ele>
<time>2018-03-05T13:19:15Z</time>
</trkpt>
<trkpt lat="43.15837302" lon="-2.49166488">
<ele>634.119</ele>
<time>2018-03-05T13:19:35Z</time>
</trkpt>
<trkpt lat="43.15813002" lon="-2.49125688">
<ele>623.286</ele>
<time>2018-03-05T13:19:55Z</time>
</trkpt>
<trkpt lat="43.15793402" lon="-2.49084888">
<ele>616.561</ele>
<time>2018-03-05T13:20:15Z</time>
</trkpt>
<trkpt lat="43.15784802" lon="-2.49070988">
<ele>614.624</ele>
<time>2018-03-05T13:20:35Z</time>
</trkpt>
<trkpt lat="43.15742602" lon="-2.49044188">
<ele>607.556</ele>
<time>2018-03-05T13:20:55Z</time>
</trkpt>
<trkpt lat="43.15689302" lon="-2.49013088">
<ele>598.123</ele>
<time>2018-03-05T13:21:15Z</time>
</trkpt>
<trkpt lat="43.15666602" lon="-2.48982988">
<ele>595.875</ele>
<time>2018-03-05T13:21:35Z</time>
</trkpt>
<trkpt lat="43.15615002" lon="-2.48930488">
<ele>587.744</ele>
<time>2018-03-05T13:21:55Z</time>
</trkpt>
<trkpt lat="43.15575802" lon="-2.48869288">
<ele>581.605</ele>
<time>2018-03-05T13:22:15Z</time>
</trkpt>
<trkpt lat="43.15550002" lon="-2.48811388">
<ele>574.315</ele>
<time>2018-03-05T13:22:35Z</time>
</trkpt>
<trkpt lat="43.15548502" lon="-2.48778088">
<ele>573.508</ele>
<time>2018-03-05T13:22:55Z</time>
</trkpt>
<trkpt lat="43.15536702" lon="-2.48746988">
<ele>572.636</ele>
<time>2018-03-05T13:23:15Z</time>
</trkpt>
<trkpt lat="43.15521802" lon="-2.48714788">
<ele>572.267</ele>
<time>2018-03-05T13:23:35Z</time>
</trkpt>
<trkpt lat="43.15482702" lon="-2.48681488">
<ele>568.894</ele>
<time>2018-03-05T13:23:55Z</time>
</trkpt>
<trkpt lat="43.15460002" lon="-2.48658988">
<ele>567.469</ele>
<time>2018-03-05T13:24:15Z</time>
</trkpt>
<trkpt lat="43.15412302" lon="-2.48637588">
<ele>563.482</ele>
<time>2018-03-05T13:24:35Z</time>
</trkpt>
<trkpt lat="43.15388802" lon="-2.48622488">
<ele>561.334</ele>
<time>2018-03-05T13:24:55Z</time>
</trkpt>
<trkpt lat="43.15348102" lon="-2.48598888">
<ele>559.231</ele>
<time>2018-03-05T13:25:15Z</time>
</trkpt>
<trkpt lat="43.15322302" lon="-2.48588188">
<ele>558.393</ele>
<time>2018-03-05T13:25:35Z</time>
</trkpt>
<trkpt lat="43.15307402" lon="-2.48577488">
<ele>557.951</ele>
<time>2018-03-05T13:25:55Z</time>
</trkpt>
<trkpt lat="43.15281602" lon="-2.48572088">
<ele>558.801</ele>
<time>2018-03-05T13:26:15Z</time>
</trkpt>
<trkpt lat="43.15247102" lon="-2.48561388">
<ele>560.711</ele>
<time>2018-03-05T13:26:35Z</time>
</trkpt>
<trkpt lat="43.15226000" lon="-2.48566400">
<ele>561.441</ele>
<time>2025-02-17T22:52:28Z</time>
</trkpt>
<trkpt lat="43.15175800" lon="-2.48599900">
<ele>562.205</ele>
<time>2025-02-17T22:53:08Z</time>
</trkpt>
<trkpt lat="43.15175000" lon="-2.48599800">
<ele>562.209</ele>
<time>2025-02-17T22:53:48Z</time>
</trkpt>
<trkpt lat="43.15110100" lon="-2.48593300">
<ele>565.514</ele>
<time>2025-02-17T22:54:28Z</time>
</trkpt>
<trkpt lat="43.15037300" lon="-2.48576700">
<ele>565.792</ele>
<time>2025-02-17T22:55:08Z</time>
</trkpt>
<trkpt lat="43.15006700" lon="-2.48569700">
<ele>565.383</ele>
<time>2025-02-17T22:55:48Z</time>
</trkpt>
<trkpt lat="43.14892600" lon="-2.48506700">
<ele>564.121</ele>
<time>2025-02-17T22:56:28Z</time>
</trkpt>
<trkpt lat="43.14890900" lon="-2.48505800">
<ele>564.295</ele>
<time>2025-02-17T22:57:08Z</time>
</trkpt>
<trkpt lat="43.14843900" lon="-2.48497500">
<ele>566.498</ele>
<time>2025-02-17T22:57:48Z</time>
</trkpt>
<trkpt lat="43.14843700" lon="-2.48497500">
<ele>566.444</ele>
<time>2025-02-17T22:58:28Z</time>
</trkpt>
<trkpt lat="43.14835100" lon="-2.48502500">
<ele>565.113</ele>
<time>2025-02-17T22:59:08Z</time>
</trkpt>
<trkpt lat="43.14826800" lon="-2.48509600">
<ele>565.132</ele>
<time>2025-02-17T22:59:48Z</time>
</trkpt>
<trkpt lat="43.14819400" lon="-2.48517800">
<ele>565.141</ele>
<time>2025-02-17T23:00:28Z</time>
</trkpt>
<trkpt lat="43.14811700" lon="-2.48525200">
<ele>565.681</ele>
<time>2025-02-17T23:01:08Z</time>
</trkpt>
<trkpt lat="43.14804600" lon="-2.48534000">
<ele>565.709</ele>
<time>2025-02-17T23:01:48Z</time>
</trkpt>
<trkpt lat="43.14797900" lon="-2.48543600">
<ele>565.509</ele>
<time>2025-02-17T23:02:28Z</time>
</trkpt>
<trkpt lat="43.14790400" lon="-2.48551900">
<ele>565.856</ele>
<time>2025-02-17T23:03:08Z</time>
</trkpt>
<trkpt lat="43.14782900" lon="-2.48559700">
<ele>566.314</ele>
<time>2025-02-17T23:03:48Z</time>
</trkpt>
<trkpt lat="43.14776200" lon="-2.48568300">
<ele>566.255</ele>
<time>2025-02-17T23:04:28Z</time>
</trkpt>
<trkpt lat="43.14769300" lon="-2.48578300">
<ele>565.613</ele>
<time>2025-02-17T23:05:08Z</time>
</trkpt>
<trkpt lat="43.14761400" lon="-2.48585800">
<ele>566.287</ele>
<time>2025-02-17T23:05:48Z</time>
</trkpt>
<trkpt lat="43.14753100" lon="-2.48593200">
<ele>567.090</ele>
<time>2025-02-17T23:06:28Z</time>
</trkpt>
<trkpt lat="43.14745500" lon="-2.48600100">
<ele>566.716</ele>
<time>2025-02-17T23:07:08Z</time>
</trkpt>
<trkpt lat="43.14742800" lon="-2.48600500">
<ele>566.875</ele>
<time>2025-02-17T23:07:48Z</time>
</trkpt>
<trkpt lat="43.14742700" lon="-2.48600000">
<ele>566.954</ele>
<time>2025-02-17T23:08:28Z</time>
</trkpt>
<trkpt lat="43.14742800" lon="-2.48598800">
<ele>567.214</ele>
<time>2025-02-17T23:09:08Z</time>
</trkpt>
<trkpt lat="43.14735600" lon="-2.48600700">
<ele>567.354</ele>
<time>2025-02-17T23:09:48Z</time>
</trkpt>
<trkpt lat="43.14722200" lon="-2.48601600">
<ele>568.109</ele>
<time>2025-02-17T23:10:28Z</time>
</trkpt>
<trkpt lat="43.14706200" lon="-2.48601400">
<ele>568.109</ele>
<time>2025-02-17T23:11:08Z</time>
</trkpt>
<trkpt lat="43.14695500" lon="-2.48600700">
<ele>568.173</ele>
<time>2025-02-17T23:11:48Z</time>
</trkpt>
<trkpt lat="43.14685000" lon="-2.48599200">
<ele>568.191</ele>
<time>2025-02-17T23:12:28Z</time>
</trkpt>
<trkpt lat="43.14683700" lon="-2.48598900">
<ele>568.192</ele>
<time>2025-02-17T23:13:08Z</time>
</trkpt>
<trkpt lat="43.14682500" lon="-2.48598200">
<ele>568.270</ele>
<time>2025-02-17T23:13:48Z</time>
</trkpt>
<trkpt lat="43.14679500" lon="-2.48596500">
<ele>568.384</ele>
<time>2025-02-17T23:14:28Z</time>
</trkpt>
<trkpt lat="43.14677800" lon="-2.48596300">
<ele>568.387</ele>
<time>2025-02-17T23:15:08Z</time>
</trkpt>
<trkpt lat="43.14676200" lon="-2.48596300">
<ele>568.223</ele>
<time>2025-02-17T23:15:48Z</time>
</trkpt>
<trkpt lat="43.14673400" lon="-2.48595600">
<ele>568.332</ele>
<time>2025-02-17T23:16:28Z</time>
</trkpt>
<trkpt lat="43.14672000" lon="-2.48595100">
<ele>568.321</ele>
<time>2025-02-17T23:17:08Z</time>
</trkpt>
<trkpt lat="43.14670500" lon="-2.48594700">
<ele>568.331</ele>
<time>2025-02-17T23:17:48Z</time>
</trkpt>
<trkpt lat="43.14668100" lon="-2.48595100">
<ele>568.261</ele>
<time>2025-02-17T23:18:28Z</time>
</trkpt>
<trkpt lat="43.14668100" lon="-2.48596000">
<ele>568.107</ele>
<time>2025-02-17T23:19:08Z</time>
</trkpt>
<trkpt lat="43.14651700" lon="-2.48605100">
<ele>568.609</ele>
<time>2025-02-17T23:19:48Z</time>
</trkpt>
<trkpt lat="43.14652900" lon="-2.48605000">
<ele>568.545</ele>
<time>2025-02-17T23:20:28Z</time>
</trkpt>
<trkpt lat="43.14652600" lon="-2.48598100">
<ele>568.593</ele>
<time>2025-02-17T23:21:08Z</time>
</trkpt>
<trkpt lat="43.14647500" lon="-2.48597400">
<ele>568.724</ele>
<time>2025-02-17T23:21:48Z</time>
</trkpt>
<trkpt lat="43.14646200" lon="-2.48601900">
<ele>568.982</ele>
<time>2025-02-17T23:22:28Z</time>
</trkpt>
<trkpt lat="43.14641300" lon="-2.48607000">
<ele>569.596</ele>
<time>2025-02-17T23:23:08Z</time>
</trkpt>
<trkpt lat="43.14635500" lon="-2.48626000">
<ele>571.619</ele>
<time>2025-02-17T23:23:48Z</time>
</trkpt>
<trkpt lat="43.14638100" lon="-2.48628400">
<ele>571.465</ele>
<time>2025-02-17T23:24:28Z</time>
</trkpt>
<trkpt lat="43.14607400" lon="-2.48702400">
<ele>586.224</ele>
<time>2025-02-17T23:25:08Z</time>
</trkpt>
<trkpt lat="43.14585800" lon="-2.48724500">
<ele>596.723</ele>
<time>2025-02-17T23:25:48Z</time>
</trkpt>
<trkpt lat="43.14553700" lon="-2.48757300">
<ele>612.848</ele>
<time>2025-02-17T23:26:28Z</time>
</trkpt>
<trkpt lat="43.14547100" lon="-2.48789300">
<ele>620.661</ele>
<time>2025-02-17T23:27:08Z</time>
</trkpt>
<trkpt lat="43.14547100" lon="-2.48789100">
<ele>620.617</ele>
<time>2025-02-17T23:27:48Z</time>
</trkpt>
<trkpt lat="43.14526300" lon="-2.48860500">
<ele>636.609</ele>
<time>2025-02-17T23:28:28Z</time>
</trkpt>
<trkpt lat="43.14544900" lon="-2.48902200">
<ele>638.776</ele>
<time>2025-02-17T23:29:08Z</time>
</trkpt>
<trkpt lat="43.14542200" lon="-2.48909600">
<ele>639.594</ele>
<time>2025-02-17T23:29:48Z</time>
</trkpt>
<trkpt lat="43.14547500" lon="-2.48913200">
<ele>639.675</ele>
<time>2025-02-17T23:30:28Z</time>
</trkpt>
<trkpt lat="43.14550600" lon="-2.48921000">
<ele>640.393</ele>
<time>2025-02-17T23:31:08Z</time>
</trkpt>
<trkpt lat="43.14551900" lon="-2.48920900">
<ele>640.317</ele>
<time>2025-02-17T23:31:48Z</time>
</trkpt>
<trkpt lat="43.14552700" lon="-2.48925600">
<ele>640.780</ele>
<time>2025-02-17T23:32:28Z</time>
</trkpt>
<trkpt lat="43.14554700" lon="-2.48931300">
<ele>641.546</ele>
<time>2025-02-17T23:33:08Z</time>
</trkpt>
<trkpt lat="43.14554900" lon="-2.48938800">
<ele>642.395</ele>
<time>2025-02-17T23:33:48Z</time>
</trkpt>
<trkpt lat="43.14557400" lon="-2.48944800">
<ele>642.424</ele>
<time>2025-02-17T23:34:28Z</time>
</trkpt>
<trkpt lat="43.14559400" lon="-2.48952000">
<ele>642.043</ele>
<time>2025-02-17T23:35:08Z</time>
</trkpt>
<trkpt lat="43.14559400" lon="-2.48958500">
<ele>642.264</ele>
<time>2025-02-17T23:35:48Z</time>
</trkpt>
<trkpt lat="43.14562900" lon="-2.48963200">
<ele>641.710</ele>
<time>2025-02-17T23:36:28Z</time>
</trkpt>
<trkpt lat="43.14566400" lon="-2.48967200">
<ele>641.409</ele>
<time>2025-02-17T23:37:08Z</time>
</trkpt>
<trkpt lat="43.14569200" lon="-2.48972500">
<ele>641.596</ele>
<time>2025-02-17T23:37:48Z</time>
</trkpt>
<trkpt lat="43.14571000" lon="-2.48978200">
<ele>641.314</ele>
<time>2025-02-17T23:38:28Z</time>
</trkpt>
<trkpt lat="43.14573800" lon="-2.48984000">
<ele>641.375</ele>
<time>2025-02-17T23:39:08Z</time>
</trkpt>
<trkpt lat="43.14576300" lon="-2.48991000">
<ele>641.663</ele>
<time>2025-02-17T23:39:48Z</time>
</trkpt>
<trkpt lat="43.14578600" lon="-2.48996800">
<ele>642.137</ele>
<time>2025-02-17T23:40:28Z</time>
</trkpt>
<trkpt lat="43.14583300" lon="-2.49001600">
<ele>643.050</ele>
<time>2025-02-17T23:41:08Z</time>
</trkpt>
<trkpt lat="43.14587300" lon="-2.49007100">
<ele>641.986</ele>
<time>2025-02-17T23:41:48Z</time>
</trkpt>
<trkpt lat="43.14590300" lon="-2.49013600">
<ele>641.525</ele>
<time>2025-02-17T23:42:28Z</time>
</trkpt>
<trkpt lat="43.14593800" lon="-2.49019600">
<ele>641.274</ele>
<time>2025-02-17T23:43:08Z</time>
</trkpt>
<trkpt lat="43.14597000" lon="-2.49025800">
<ele>641.356</ele>
<time>2025-02-17T23:43:48Z</time>
</trkpt>
<trkpt lat="43.14600500" lon="-2.49030800">
<ele>641.259</ele>
<time>2025-02-17T23:44:28Z</time>
</trkpt>
<trkpt lat="43.14602300" lon="-2.49038000">
<ele>641.214</ele>
<time>2025-02-17T23:45:08Z</time>
</trkpt>
<trkpt lat="43.14604000" lon="-2.49045200">
<ele>641.409</ele>
<time>2025-02-17T23:45:48Z</time>
</trkpt>
<trkpt lat="43.14606200" lon="-2.49050900">
<ele>641.627</ele>
<time>2025-02-17T23:46:28Z</time>
</trkpt>
<trkpt lat="43.14609200" lon="-2.49057900">
<ele>642.175</ele>
<time>2025-02-17T23:47:08Z</time>
</trkpt>
<trkpt lat="43.14611900" lon="-2.49063700">
<ele>642.676</ele>
<time>2025-02-17T23:47:48Z</time>
</trkpt>
<trkpt lat="43.14614100" lon="-2.49070000">
<ele>642.774</ele>
<time>2025-02-17T23:48:28Z</time>
</trkpt>
<trkpt lat="43.14614800" lon="-2.49076800">
<ele>643.358</ele>
<time>2025-02-17T23:49:08Z</time>
</trkpt>
<trkpt lat="43.14616600" lon="-2.49084100">
<ele>643.631</ele>
<time>2025-02-17T23:49:48Z</time>
</trkpt>
<trkpt lat="43.14619300" lon="-2.49089600">
<ele>643.057</ele>
<time>2025-02-17T23:50:28Z</time>
</trkpt>
<trkpt lat="43.14621800" lon="-2.49095800">
<ele>642.616</ele>
<time>2025-02-17T23:51:08Z</time>
</trkpt>
<trkpt lat="43.14624300" lon="-2.49101000">
<ele>642.515</ele>
<time>2025-02-17T23:51:48Z</time>
</trkpt>
<trkpt lat="43.14626800" lon="-2.49107000">
<ele>642.775</ele>
<time>2025-02-17T23:52:28Z</time>
</trkpt>
<trkpt lat="43.14629600" lon="-2.49113200">
<ele>643.228</ele>
<time>2025-02-17T23:53:08Z</time>
</trkpt>
<trkpt lat="43.14633300" lon="-2.49119500">
<ele>644.020</ele>
<time>2025-02-17T23:53:48Z</time>
</trkpt>
<trkpt lat="43.14635600" lon="-2.49125800">
<ele>645.109</ele>
<time>2025-02-17T23:54:28Z</time>
</trkpt>
<trkpt lat="43.14638300" lon="-2.49131000">
<ele>646.599</ele>
<time>2025-02-17T23:55:08Z</time>
</trkpt>
<trkpt lat="43.14639800" lon="-2.49137200">
<ele>647.327</ele>
<time>2025-02-17T23:55:48Z</time>
</trkpt>
<trkpt lat="43.14641800" lon="-2.49143400">
<ele>646.818</ele>
<time>2025-02-17T23:56:28Z</time>
</trkpt>
<trkpt lat="43.14644000" lon="-2.49148800">
<ele>646.166</ele>
<time>2025-02-17T23:57:08Z</time>
</trkpt>
<trkpt lat="43.14645100" lon="-2.49152400">
<ele>645.860</ele>
<time>2025-02-17T23:57:48Z</time>
</trkpt>
<trkpt lat="43.14646100" lon="-2.49151100">
<ele>645.583</ele>
<time>2025-02-17T23:58:28Z</time>
</trkpt>
<trkpt lat="43.14691300" lon="-2.49223400">
<ele>629.879</ele>
<time>2025-02-17T23:59:08Z</time>
</trkpt>
<trkpt lat="43.14667900" lon="-2.49440400">
<ele>600.128</ele>
<time>2025-02-17T23:59:48Z</time>
</trkpt>
<trkpt lat="43.14703500" lon="-2.49681500">
<ele>556.567</ele>
<time>2025-02-18T00:00:28Z</time>
</trkpt>
<trkpt lat="43.14696700" lon="-2.49682500">
<ele>558.077</ele>
<time>2025-02-18T00:01:08Z</time>
</trkpt>
<trkpt lat="43.14697600" lon="-2.49691200">
<ele>556.061</ele>
<time>2025-02-18T00:01:48Z</time>
</trkpt>
<trkpt lat="43.14634600" lon="-2.49648200">
<ele>547.127</ele>
<time>2025-02-18T00:02:28Z</time>
</trkpt>
<trkpt lat="43.14568600" lon="-2.49533500">
<ele>543.309</ele>
<time>2025-02-18T00:03:08Z</time>
</trkpt>
<trkpt lat="43.14516500" lon="-2.49390300">
<ele>541.369</ele>
<time>2025-02-18T00:03:48Z</time>
</trkpt>
<trkpt lat="43.14450400" lon="-2.49275200">
<ele>537.947</ele>
<time>2025-02-18T00:04:28Z</time>
</trkpt>
<trkpt lat="43.14439100" lon="-2.49265500">
<ele>535.568</ele>
<time>2025-02-18T00:05:08Z</time>
</trkpt>
<trkpt lat="43.14406800" lon="-2.49205600">
<ele>534.426</ele>
<time>2025-02-18T00:05:48Z</time>
</trkpt>
<trkpt lat="43.14338800" lon="-2.49138700">
<ele>522.030</ele>
<time>2025-02-18T00:06:28Z</time>
</trkpt>
<trkpt lat="43.14285300" lon="-2.49057700">
<ele>514.723</ele>
<time>2025-02-18T00:07:08Z</time>
</trkpt>
<trkpt lat="43.14219800" lon="-2.48889000">
<ele>502.079</ele>
<time>2025-02-18T00:07:48Z</time>
</trkpt>
<trkpt lat="43.14174900" lon="-2.48773200">
<ele>494.468</ele>
<time>2025-02-18T00:08:28Z</time>
</trkpt>
<trkpt lat="43.14123200" lon="-2.48694300">
<ele>491.937</ele>
<time>2025-02-18T00:09:08Z</time>
</trkpt>
<trkpt lat="43.14124200" lon="-2.48683200">
<ele>491.173</ele>
<time>2025-02-18T00:09:48Z</time>
</trkpt>
<trkpt lat="43.14122400" lon="-2.48683000">
<ele>491.085</ele>
<time>2025-02-18T00:10:28Z</time>
</trkpt>
<trkpt lat="43.14112200" lon="-2.48680900">
<ele>490.113</ele>
<time>2025-02-18T00:11:08Z</time>
</trkpt>
<trkpt lat="43.14101700" lon="-2.48682300">
<ele>489.609</ele>
<time>2025-02-18T00:11:48Z</time>
</trkpt>
<trkpt lat="43.14092100" lon="-2.48680500">
<ele>489.039</ele>
<time>2025-02-18T00:12:28Z</time>
</trkpt>
<trkpt lat="43.14082100" lon="-2.48680500">
<ele>488.527</ele>
<time>2025-02-18T00:13:08Z</time>
</trkpt>
<trkpt lat="43.14072800" lon="-2.48680800">
<ele>488.538</ele>
<time>2025-02-18T00:13:48Z</time>
</trkpt>
<trkpt lat="43.14063400" lon="-2.48677300">
<ele>488.666</ele>
<time>2025-02-18T00:14:28Z</time>
</trkpt>
<trkpt lat="43.14053700" lon="-2.48674800">
<ele>488.890</ele>
<time>2025-02-18T00:15:08Z</time>
</trkpt>
<trkpt lat="43.14044200" lon="-2.48675500">
<ele>489.053</ele>
<time>2025-02-18T00:15:48Z</time>
</trkpt>
<trkpt lat="43.14034600" lon="-2.48676400">
<ele>489.139</ele>
<time>2025-02-18T00:16:28Z</time>
</trkpt>
<trkpt lat="43.14024200" lon="-2.48678000">
<ele>489.428</ele>
<time>2025-02-18T00:17:08Z</time>
</trkpt>
<trkpt lat="43.14015100" lon="-2.48677300">
<ele>490.097</ele>
<time>2025-02-18T00:17:48Z</time>
</trkpt>
<trkpt lat="43.14005200" lon="-2.48673300">
<ele>491.098</ele>
<time>2025-02-18T00:18:28Z</time>
</trkpt>
<trkpt lat="43.13995800" lon="-2.48670200">
<ele>491.515</ele>
<time>2025-02-18T00:19:08Z</time>
</trkpt>
<trkpt lat="43.13986300" lon="-2.48665400">
<ele>491.626</ele>
<time>2025-02-18T00:19:48Z</time>
</trkpt>
<trkpt lat="43.13928902" lon="-2.48654688">
<ele>487.126</ele>
<time>2018-03-05T14:10:35Z</time>
</trkpt>
<trkpt lat="43.13910102" lon="-2.48647188">
<ele>484.508</ele>
<time>2018-03-05T14:10:55Z</time>
</trkpt>
<trkpt lat="43.13892902" lon="-2.48645088">
<ele>482.380</ele>
<time>2018-03-05T14:11:15Z</time>
</trkpt>
<trkpt lat="43.13855302" lon="-2.48646088">
<ele>478.691</ele>
<time>2018-03-05T14:11:35Z</time>
</trkpt>
<trkpt lat="43.13830302" lon="-2.48651488">
<ele>476.758</ele>
<time>2018-03-05T14:11:55Z</time>
</trkpt>
<trkpt lat="43.13799702" lon="-2.48661188">
<ele>474.673</ele>
<time>2018-03-05T14:12:15Z</time>
</trkpt>
<trkpt lat="43.13732402" lon="-2.48694388">
<ele>471.746</ele>
<time>2018-03-05T14:12:35Z</time>
</trkpt>
<trkpt lat="43.13669802" lon="-2.48729788">
<ele>466.278</ele>
<time>2018-03-05T14:12:55Z</time>
</trkpt>
<trkpt lat="43.13679202" lon="-2.48751288">
<ele>466.845</ele>
<time>2018-03-05T14:13:15Z</time>
</trkpt>
</trkseg>
</trk>
<extensions>
</extensions>
</gpx>
